Observation data for Claude 12 Southwest on 08/14/2020      Previous  Date       Current Mesonet Observations  Soil Data  Daily Summary Page  Observations in Plain Language
KCL1 140500Z 02009KT 26/17 A3001 RMK A01 T02550169  RH  059%=      5-min Rain = 0
KCL1 140501Z 02010KT 25/17 A3001 RMK A01 T02540169  RH  059%=      5-min Rain = 0
KCL1 140502Z 02010KT 25/17 A3001 RMK A01 T02540169  RH  059%=      5-min Rain = 0
KCL1 140503Z 02010KT 25/17 A3001 RMK A01 T02540169  RH  059%=      5-min Rain = 0
KCL1 140504Z 02010KT 25/17 A3001 RMK A01 T02540170  RH  059%=      5-min Rain = 0
KCL1 140505Z 03010KT 25/17 A3001 RMK A01 T02540169  RH  059%=      5-min Rain = 0
KCL1 140506Z 03009KT 25/17 A3001 RMK A01 T02540169  RH  059%=      5-min Rain = 0
KCL1 140507Z 03009KT 25/17 A3001 RMK A01 T02540169  RH  059%=      5-min Rain = 0
KCL1 140508Z 03009KT 25/17 A30 RMK A01 T02540169  RH  059%=      5-min Rain = 0
KCL1 140509Z 03009KT 25/17 A30 RMK A01 T02530169  RH  060%=      5-min Rain = 0
KCL1 140510Z 04008KT 25/17 A30 RMK A01 T02540170  RH  060%=      5-min Rain = 0
KCL1 140511Z 04008KT 25/17 A30 RMK A01 T02530169  RH  060%=      5-min Rain = 0
KCL1 140512Z 03008KT 25/17 A30 RMK A01 T02530170  RH  060%=      5-min Rain = 0
KCL1 140513Z 04008KT 25/17 A30 RMK A01 T02530170  RH  060%=      5-min Rain = 0
KCL1 140514Z 03008KT 25/17 A30 RMK A01 T02520169  RH  060%=      5-min Rain = 0
KCL1 140515Z 04008KT 25/17 A30 RMK A01 T02520170  RH  060%=      5-min Rain = 0
KCL1 140516Z 03009KT 25/17 A30 RMK A01 T02510169  RH  060%=      5-min Rain = 0
KCL1 140517Z 03010KT 25/17 A30 RMK A01 T02510169  RH  060%=      5-min Rain = 0
KCL1 140518Z 03009KT 25/17 A30 RMK A01 T02510169  RH  060%=      5-min Rain = 0
KCL1 140519Z 04010KT 25/17 A30 RMK A01 T02510169  RH  060%=      5-min Rain = 0
KCL1 140520Z 03008KT 25/17 A30 RMK A01 T02510169  RH  060%=      5-min Rain = 0
KCL1 140521Z 04008KT 25/17 A30 RMK A01 T02510169  RH  060%=      5-min Rain = 0
KCL1 140522Z 04008KT 25/17 A30 RMK A01 T02510169  RH  060%=      5-min Rain = 0
KCL1 140523Z 04008KT 25/17 A30 RMK A01 T02510169  RH  060%=      5-min Rain = 0
KCL1 140524Z 04007KT 25/17 A30 RMK A01 T02510169  RH  060%=      5-min Rain = 0
KCL1 140525Z 04007KT 25/17 A30 RMK A01 T02500169  RH  061%=      5-min Rain = 0
KCL1 140526Z 04007KT 25/17 A30 RMK A01 T02500169  RH  061%=      5-min Rain = 0
KCL1 140527Z 04007KT 25/17 A30 RMK A01 T02490169  RH  061%=      5-min Rain = 0
KCL1 140528Z 04008KT 25/17 A30 RMK A01 T02490169  RH  061%=      5-min Rain = 0
KCL1 140529Z 04008KT 25/17 A30 RMK A01 T02480169  RH  061%=      5-min Rain = 0
KCL1 140530Z 04008KT 25/17 A30 RMK A01 T02480170  RH  062%=      5-min Rain = 0
KCL1 140531Z 04009KT 25/17 A30 RMK A01 T02480170  RH  062%=      5-min Rain = 0
KCL1 140532Z 03010KT 25/17 A30 RMK A01 T02480170  RH  062%=      5-min Rain = 0
KCL1 140533Z 03010KT 25/17 A30 RMK A01 T02490171  RH  062%=      5-min Rain = 0
KCL1 140534Z 03010KT 25/17 A30 RMK A01 T02500171  RH  062%=      5-min Rain = 0
KCL1 140535Z 03010KT 25/17 A30 RMK A01 T02510172  RH  062%=      5-min Rain = 0
KCL1 140536Z 03010KT 25/17 A30 RMK A01 T02520172  RH  061%=      5-min Rain = 0
KCL1 140537Z 03009KT 25/17 A30 RMK A01 T02530173  RH  061%=      5-min Rain = 0
KCL1 140538Z 03009KT 25/17 A30 RMK A01 T02520172  RH  061%=      5-min Rain = 0
KCL1 140539Z 03008KT 25/17 A30 RMK A01 T02530172  RH  061%=      5-min Rain = 0
KCL1 140540Z 03009KT 25/17 A30 RMK A01 T02530173  RH  061%=      5-min Rain = 0
KCL1 140541Z 03007KT 25/17 A3001 RMK A01 T02520172  RH  061%=      5-min Rain = 0
KCL1 140542Z 03008KT 25/17 A3001 RMK A01 T02510172  RH  061%=      5-min Rain = 0
KCL1 140543Z 03007KT 25/17 A3001 RMK A01 T02510172  RH  062%=      5-min Rain = 0
KCL1 140544Z 03007KT 25/17 A3001 RMK A01 T02500172  RH  062%=      5-min Rain = 0
KCL1 140545Z 03006KT 25/17 A3001 RMK A01 T02500172  RH  062%=      5-min Rain = 0
KCL1 140546Z 03006KT 25/17 A3001 RMK A01 T02500171  RH  062%=      5-min Rain = 0
KCL1 140547Z 03006KT 25/17 A3001 RMK A01 T02490171  RH  062%=      5-min Rain = 0
KCL1 140548Z 04007KT 25/17 A3001 RMK A01 T02490170  RH  062%=      5-min Rain = 0
KCL1 140549Z 04007KT 25/17 A3001 RMK A01 T02490170  RH  062%=      5-min Rain = 0
KCL1 140550Z 04007KT 25/17 A3001 RMK A01 T02480170  RH  062%=      5-min Rain = 0
KCL1 140551Z 04008KT 25/17 A3001 RMK A01 T02480170  RH  062%=      5-min Rain = 0
KCL1 140552Z 04008KT 25/17 A3001 RMK A01 T02480171  RH  062%=      5-min Rain = 0
KCL1 140553Z 04008KT 25/17 A3001 RMK A01 T02480170  RH  062%=      5-min Rain = 0
KCL1 140554Z 04008KT 25/17 A3001 RMK A01 T02480170  RH  062%=      5-min Rain = 0
KCL1 140555Z 04008KT 25/17 A3001 RMK A01 T02480170  RH  062%=      5-min Rain = 0
KCL1 140556Z 03008KT 25/17 A3001 RMK A01 T02470169  RH  062%=      5-min Rain = 0
KCL1 140557Z 03008KT 25/17 A3001 RMK A01 T02470169  RH  062%=      5-min Rain = 0
KCL1 140558Z 03008KT 25/17 A3001 RMK A01 T02470170  RH  062%=      5-min Rain = 0
KCL1 140559Z 03008KT 25/17 A3001 RMK A01 T02460169  RH  062%=      5-min Rain = 0
KCL1 140600Z 03008KT 25/17 A3001 RMK A01 T02460169  RH  062%=      5-min Rain = 0
KCL1 140601Z 04008KT 25/17 A3001 RMK A01 T02460169  RH  062%=      5-min Rain = 0
KCL1 140602Z 04007KT 25/17 A3001 RMK A01 T02460169  RH  062%=      5-min Rain = 0
KCL1 140603Z 04007KT 25/17 A3001 RMK A01 T02450169  RH  062%=      5-min Rain = 0
KCL1 140604Z 04007KT 25/17 A3001 RMK A01 T02450168  RH  062%=      5-min Rain = 0
KCL1 140605Z 05007KT 24/17 A3001 RMK A01 T02440168  RH  063%=      5-min Rain = 0
KCL1 140606Z 05007KT 24/17 A3001 RMK A01 T02440168  RH  063%=      5-min Rain = 0
KCL1 140607Z 05007KT 24/17 A3001 RMK A01 T02430168  RH  063%=      5-min Rain = 0
KCL1 140608Z 05008KT 24/17 A3001 RMK A01 T02430168  RH  063%=      5-min Rain = 0
KCL1 140609Z 05008KT 24/17 A3001 RMK A01 T02420169  RH  063%=      5-min Rain = 0
KCL1 140610Z 04008KT 24/17 A3001 RMK A01 T02420169  RH  064%=      5-min Rain = 0
KCL1 140611Z 04008KT 24/17 A3001 RMK A01 T02420168  RH  064%=      5-min Rain = 0
KCL1 140612Z 04008KT 24/17 A3001 RMK A01 T02420169  RH  064%=      5-min Rain = 0
KCL1 140613Z 04008KT 24/17 A3001 RMK A01 T02420169  RH  064%=      5-min Rain = 0
KCL1 140614Z 04008KT 24/17 A3001 RMK A01 T02420169  RH  064%=      5-min Rain = 0
KCL1 140615Z 04008KT 24/17 A3001 RMK A01 T02420169  RH  064%=      5-min Rain = 0
KCL1 140616Z 04008KT 24/17 A3001 RMK A01 T02420170  RH  064%=      5-min Rain = 0
KCL1 140617Z 04008KT 24/17 A3001 RMK A01 T02420170  RH  064%=      5-min Rain = 0
KCL1 140618Z 05008KT 24/17 A3001 RMK A01 T02420170  RH  064%=      5-min Rain = 0
KCL1 140619Z 05009KT 24/17 A3001 RMK A01 T02420170  RH  064%=      5-min Rain = 0
KCL1 140620Z 04009KT 24/17 A3001 RMK A01 T02420171  RH  065%=      5-min Rain = 0
KCL1 140621Z 04009KT 24/17 A3001 RMK A01 T02420171  RH  065%=      5-min Rain = 0
KCL1 140622Z 04009KT 24/17 A3001 RMK A01 T02420171  RH  065%=      5-min Rain = 0
KCL1 140623Z 04009KT 24/17 A3001 RMK A01 T02420172  RH  065%=      5-min Rain = 0
KCL1 140624Z 04009KT 24/17 A3001 RMK A01 T02420172  RH  065%=      5-min Rain = 0
KCL1 140625Z 04009KT 24/17 A3001 RMK A01 T02420173  RH  065%=      5-min Rain = 0
KCL1 140626Z 04009KT 24/17 A3001 RMK A01 T02420173  RH  065%=      5-min Rain = 0
KCL1 140627Z 04009KT 24/17 A3001 RMK A01 T02420174  RH  065%=      5-min Rain = 0
KCL1 140628Z 04008KT 24/17 A3001 RMK A01 T02430174  RH  065%=      5-min Rain = 0
KCL1 140629Z 04008KT 24/18 A3001 RMK A01 T02430175  RH  066%=      5-min Rain = 0
KCL1 140630Z 04008KT 24/18 A3001 RMK A01 T02430175  RH  066%=      5-min Rain = 0
KCL1 140631Z 04008KT 24/18 A3001 RMK A01 T02430175  RH  066%=      5-min Rain = 0
KCL1 140632Z 05008KT 24/18 A3001 RMK A01 T02420175  RH  066%=      5-min Rain = 0
KCL1 140633Z 05008KT 24/18 A3001 RMK A01 T02420175  RH  066%=      5-min Rain = 0
KCL1 140634Z 05008KT 24/18 A3001 RMK A01 T02410175  RH  066%=      5-min Rain = 0
KCL1 140635Z 05009KT 24/18 A3001 RMK A01 T02410176  RH  067%=      5-min Rain = 0
KCL1 140636Z 04009KT 24/18 A3001 RMK A01 T02410176  RH  067%=      5-min Rain = 0
KCL1 140637Z 04008KT 24/18 A3001 RMK A01 T02410177  RH  067%=      5-min Rain = 0
KCL1 140638Z 05008KT 24/18 A3001 RMK A01 T02400177  RH  068%=      5-min Rain = 0
KCL1 140639Z 05008KT 24/18 A3001 RMK A01 T02400177  RH  068%=      5-min Rain = 0
KCL1 140640Z 05008KT 24/18 A3001 RMK A01 T02400178  RH  068%=      5-min Rain = 0
KCL1 140641Z 05008KT 24/18 A3001 RMK A01 T02390178  RH  068%=      5-min Rain = 0
KCL1 140642Z 05008KT 24/18 A3001 RMK A01 T02380177  RH  069%=      5-min Rain = 0
KCL1 140643Z 05008KT 24/18 A3001 RMK A01 T02370177  RH  069%=      5-min Rain = 0
KCL1 140644Z 05008KT 24/18 A3001 RMK A01 T02370177  RH  069%=      5-min Rain = 0
KCL1 140645Z 05008KT 24/18 A3001 RMK A01 T02370177  RH  069%=      5-min Rain = 0
KCL1 140646Z 05008KT 24/18 A3001 RMK A01 T02360177  RH  070%=      5-min Rain = 0
KCL1 140647Z 05008KT 24/18 A3001 RMK A01 T02350177  RH  070%=      5-min Rain = 0
KCL1 140648Z 05008KT 24/18 A3001 RMK A01 T02350177  RH  070%=      5-min Rain = 0
KCL1 140649Z 05008KT 23/18 A3001 RMK A01 T02340177  RH  070%=      5-min Rain = 0
KCL1 140650Z 05008KT 23/18 A3001 RMK A01 T02330177  RH  070%=      5-min Rain = 0
KCL1 140651Z 05007KT 23/18 A3001 RMK A01 T02330177  RH  071%=      5-min Rain = 0
KCL1 140652Z 05007KT 23/18 A3001 RMK A01 T02320177  RH  071%=      5-min Rain = 0
KCL1 140653Z 06006KT 23/18 A3001 RMK A01 T02310177  RH  071%=      5-min Rain = 0
KCL1 140654Z 06006KT 23/18 A3001 RMK A01 T02310177  RH  072%=      5-min Rain = 0
KCL1 140655Z 06005KT 23/18 A3001 RMK A01 T02310177  RH  072%=      5-min Rain = 0
KCL1 140656Z 08004KT 23/18 A3001 RMK A01 T02310177  RH  072%=      5-min Rain = 0
KCL1 140657Z 09004KT 23/18 A3001 RMK A01 T02300177  RH  072%=      5-min Rain = 0
KCL1 140658Z 09004KT 23/18 A3001 RMK A01 T02300177  RH  072%=      5-min Rain = 0
KCL1 140659Z 09004KT 23/18 A3001 RMK A01 T02290177  RH  072%=      5-min Rain = 0
KCL1 140700Z 09004KT 23/18 A3001 RMK A01 T02280177  RH  073%=      5-min Rain = 0
KCL1 140701Z 10003KT 23/18 A3001 RMK A01 T02260176  RH  073%=      5-min Rain = 0
KCL1 140702Z 11003KT 23/18 A3001 RMK A01 T02250177  RH  074%=      5-min Rain = 0
KCL1 140703Z 13003KT 23/18 A3002 RMK A01 T02250177  RH  074%=      5-min Rain = 0
KCL1 140704Z 15003KT 22/18 A3002 RMK A01 T02240176  RH  074%=      5-min Rain = 0
KCL1 140705Z 16004KT 22/18 A3002 RMK A01 T02240176  RH  074%=      5-min Rain = 0
KCL1 140706Z 16004KT 22/18 A3002 RMK A01 T02230177  RH  075%=      5-min Rain = 0
KCL1 140707Z 17003KT 22/18 A3002 RMK A01 T02230177  RH  075%=      5-min Rain = 0
KCL1 140708Z 16003KT 22/18 A3002 RMK A01 T02230178  RH  076%=      5-min Rain = 0
KCL1 140709Z 16003KT 22/18 A3002 RMK A01 T02240179  RH  076%=      5-min Rain = 0
KCL1 140710Z 15003KT 22/18 A3002 RMK A01 T02240180  RH  076%=      5-min Rain = 0
KCL1 140711Z 14003KT 23/18 A3002 RMK A01 T02250181  RH  076%=      5-min Rain = 0
KCL1 140712Z 14003KT 23/18 A3002 RMK A01 T02250182  RH  077%=      5-min Rain = 0
KCL1 140713Z 12003KT 23/18 A3002 RMK A01 T02250182  RH  077%=      5-min Rain = 0
KCL1 140714Z 11003KT 22/18 A3002 RMK A01 T02240182  RH  077%=      5-min Rain = 0
KCL1 140715Z 10003KT 22/18 A3002 RMK A01 T02240184  RH  078%=      5-min Rain = 0
KCL1 140716Z 08002KT 23/18 A3002 RMK A01 T02250184  RH  078%=      5-min Rain = 0
KCL1 140717Z 08003KT 23/18 A3001 RMK A01 T02250184  RH  078%=      5-min Rain = 0
KCL1 140718Z 07003KT 23/18 A3001 RMK A01 T02250184  RH  078%=      5-min Rain = 0
KCL1 140719Z 06003KT 23/19 A3001 RMK A01 T02250185  RH  078%=      5-min Rain = 0
KCL1 140720Z 06004KT 23/18 A3001 RMK A01 T02250184  RH  077%=      5-min Rain = 0
KCL1 140721Z 06004KT 22/18 A3001 RMK A01 T02240184  RH  078%=      5-min Rain = 0
KCL1 140722Z 06004KT 22/19 A3001 RMK A01 T02240185  RH  078%=      5-min Rain = 0
KCL1 140723Z 06004KT 22/19 A3001 RMK A01 T02240185  RH  078%=      5-min Rain = 0
KCL1 140724Z 06004KT 22/18 A3001 RMK A01 T02230184  RH  078%=      5-min Rain = 0
KCL1 140725Z 06004KT 22/18 A3001 RMK A01 T02220183  RH  079%=      5-min Rain = 0
KCL1 140726Z 06005KT 22/18 A3001 RMK A01 T02200183  RH  079%=      5-min Rain = 0
KCL1 140727Z 06005KT 22/18 A3001 RMK A01 T02190183  RH  080%=      5-min Rain = 0
KCL1 140728Z 06005KT 22/18 A3001 RMK A01 T02190184  RH  081%=      5-min Rain = 0
KCL1 140729Z 07005KT 22/19 A3001 RMK A01 T02180185  RH  081%=      5-min Rain = 0
KCL1 140730Z 07005KT 22/19 A3001 RMK A01 T02180186  RH  082%=      5-min Rain = 0
KCL1 140731Z 07004KT 22/19 A3001 RMK A01 T02180187  RH  082%=      5-min Rain = 0
KCL1 140732Z 07004KT 22/19 A3001 RMK A01 T02190187  RH  082%=      5-min Rain = 0
KCL1 140733Z 07004KT 22/19 A3001 RMK A01 T02190188  RH  082%=      5-min Rain = 0
KCL1 140734Z 06004KT 22/19 A3001 RMK A01 T02200188  RH  082%=      5-min Rain = 0
KCL1 140735Z 05003KT 22/19 A3001 RMK A01 T02210190  RH  083%=      5-min Rain = 0
KCL1 140736Z 05003KT 22/19 A3001 RMK A01 T02220192  RH  083%=      5-min Rain = 0
KCL1 140737Z 05003KT 22/19 A3001 RMK A01 T02220190  RH  082%=      5-min Rain = 0
KCL1 140738Z 05003KT 22/19 A3001 RMK A01 T02230191  RH  082%=      5-min Rain = 0
KCL1 140739Z 04003KT 22/19 A3001 RMK A01 T02230192  RH  083%=      5-min Rain = 0
KCL1 140740Z 04003KT 22/19 A3001 RMK A01 T02240192  RH  082%=      5-min Rain = 0
KCL1 140741Z 04003KT 22/19 A3001 RMK A01 T02240191  RH  082%=      5-min Rain = 0
KCL1 140742Z 03003KT 22/19 A3001 RMK A01 T02240191  RH  082%=      5-min Rain = 0
KCL1 140743Z 03003KT 22/19 A3001 RMK A01 T02230190  RH  081%=      5-min Rain = 0
KCL1 140744Z 03004KT 22/19 A30 RMK A01 T02230190  RH  082%=      5-min Rain = 0
KCL1 140745Z 04004KT 22/19 A30 RMK A01 T02230191  RH  082%=      5-min Rain = 0
KCL1 140746Z 04004KT 22/19 A30 RMK A01 T02230190  RH  082%=      5-min Rain = 0
KCL1 140747Z 04005KT 22/19 A30 RMK A01 T02240191  RH  081%=      5-min Rain = 0
KCL1 140748Z 04005KT 22/19 A30 RMK A01 T02240190  RH  081%=      5-min Rain = 0
KCL1 140749Z 03005KT 22/19 A30 RMK A01 T02240190  RH  081%=      5-min Rain = 0
KCL1 140750Z 03006KT 22/19 A30 RMK A01 T02230189  RH  081%=      5-min Rain = 0
KCL1 140751Z 04006KT 22/19 A30 RMK A01 T02230189  RH  081%=      5-min Rain = 0
KCL1 140752Z 04006KT 22/19 A30 RMK A01 T02220189  RH  081%=      5-min Rain = 0
KCL1 140753Z 04006KT 22/19 A30 RMK A01 T02220190  RH  082%=      5-min Rain = 0
KCL1 140754Z 04006KT 22/19 A30 RMK A01 T02230191  RH  082%=      5-min Rain = 0
KCL1 140755Z 03006KT 22/19 A30 RMK A01 T02220190  RH  082%=      5-min Rain = 0
KCL1 140756Z 03006KT 22/19 A30 RMK A01 T02220190  RH  082%=      5-min Rain = 0
KCL1 140757Z 03006KT 22/19 A30 RMK A01 T02210189  RH  082%=      5-min Rain = 0
KCL1 140758Z 03006KT 22/19 A30 RMK A01 T02200189  RH  082%=      5-min Rain = 0
KCL1 140759Z 03006KT 22/19 A30 RMK A01 T02200189  RH  082%=      5-min Rain = 0
KCL1 140800Z 03005KT 22/19 A30 RMK A01 T02200188  RH  082%=      5-min Rain = 0
KCL1 140801Z 03006KT 22/19 A30 RMK A01 T02200188  RH  082%=      5-min Rain = 0
KCL1 140802Z 03006KT 22/19 A30 RMK A01 T02200188  RH  082%=      5-min Rain = 0
KCL1 140803Z 02006KT 22/19 A30 RMK A01 T02200188  RH  082%=      5-min Rain = 0
KCL1 140804Z 02006KT 22/19 A30 RMK A01 T02210188  RH  082%=      5-min Rain = 0
KCL1 140805Z 02006KT 22/19 A30 RMK A01 T02210188  RH  081%=      5-min Rain = 0
KCL1 140806Z 02006KT 22/19 A30 RMK A01 T02210187  RH  081%=      5-min Rain = 0
KCL1 140807Z 02006KT 22/19 A30 RMK A01 T02210187  RH  081%=      5-min Rain = 0
KCL1 140808Z 03006KT 22/19 A30 RMK A01 T02210187  RH  081%=      5-min Rain = 0
KCL1 140809Z 03005KT 22/19 A30 RMK A01 T02210187  RH  081%=      5-min Rain = 0
KCL1 140810Z 03005KT 22/19 A30 RMK A01 T02210187  RH  081%=      5-min Rain = 0
KCL1 140811Z 03005KT 22/19 A30 RMK A01 T02210187  RH  081%=      5-min Rain = 0
KCL1 140812Z 02005KT 22/19 A30 RMK A01 T02200187  RH  081%=      5-min Rain = 0
KCL1 140813Z 02005KT 22/19 A30 RMK A01 T02200187  RH  081%=      5-min Rain = 0
KCL1 140814Z 01005KT 22/19 A30 RMK A01 T02190186  RH  081%=      5-min Rain = 0
KCL1 140815Z 35004KT 22/19 A30 RMK A01 T02190185  RH  081%=      5-min Rain = 0
KCL1 140816Z 35004KT 22/18 A30 RMK A01 T02190184  RH  080%=      5-min Rain = 0
KCL1 140817Z 34003KT 22/18 A30 RMK A01 T02180183  RH  080%=      5-min Rain = 0
KCL1 140818Z 33003KT 22/18 A30 RMK A01 T02170182  RH  080%=      5-min Rain = 0
KCL1 140819Z 33002KT 22/18 A30 RMK A01 T02170181  RH  080%=      5-min Rain = 0
KCL1 140820Z 33002KT 22/18 A30 RMK A01 T02160181  RH  080%=      5-min Rain = 0
KCL1 140821Z 33003KT 22/18 A30 RMK A01 T02160181  RH  080%=      5-min Rain = 0
KCL1 140822Z 34003KT 22/18 A30 RMK A01 T02160181  RH  080%=      5-min Rain = 0
KCL1 140823Z 34003KT 22/18 A30 RMK A01 T02160181  RH  081%=      5-min Rain = 0
KCL1 140824Z 34004KT 22/18 A30 RMK A01 T02160181  RH  080%=      5-min Rain = 0
KCL1 140825Z 34004KT 22/18 A30 RMK A01 T02160180  RH  080%=      5-min Rain = 0
KCL1 140826Z 34004KT 22/18 A30 RMK A01 T02150179  RH  080%=      5-min Rain = 0
KCL1 140827Z 34004KT 22/18 A30 RMK A01 T02150179  RH  080%=      5-min Rain = 0
KCL1 140828Z 34004KT 21/18 A30 RMK A01 T02140179  RH  080%=      5-min Rain = 0
KCL1 140829Z 34004KT 21/18 A30 RMK A01 T02140179  RH  080%=      5-min Rain = 0
KCL1 140830Z 34004KT 21/18 A30 RMK A01 T02140179  RH  080%=      5-min Rain = 0
KCL1 140831Z 34004KT 21/18 A30 RMK A01 T02130179  RH  081%=      5-min Rain = 0
KCL1 140832Z 34004KT 21/18 A30 RMK A01 T02130178  RH  081%=      5-min Rain = 0
KCL1 140833Z 35005KT 21/18 A30 RMK A01 T02120178  RH  081%=      5-min Rain = 0
KCL1 140834Z 35006KT 21/18 A30 RMK A01 T02110178  RH  081%=      5-min Rain = 0
KCL1 140835Z 35006KT 21/18 A30 RMK A01 T02110178  RH  082%=      5-min Rain = 0
KCL1 140836Z 35006KT 21/18 A30 RMK A01 T02100179  RH  082%=      5-min Rain = 0
KCL1 140837Z 35006KT 21/18 A30 RMK A01 T02110180  RH  082%=      5-min Rain = 0
KCL1 140838Z 35006KT 21/18 A2999 RMK A01 T02100179  RH  082%=      5-min Rain = 0
KCL1 140839Z 35006KT 21/18 A2999 RMK A01 T02110180  RH  083%=      5-min Rain = 0
KCL1 140840Z 35007KT 21/18 A2999 RMK A01 T02110180  RH  083%=      5-min Rain = 0
KCL1 140841Z 36006KT 21/18 A2999 RMK A01 T02100181  RH  083%=      5-min Rain = 0
KCL1 140842Z 36006KT 21/18 A2999 RMK A01 T02110182  RH  083%=      5-min Rain = 0
KCL1 140843Z 00007KT 21/18 A2999 RMK A01 T02110182  RH  084%=      5-min Rain = 0
KCL1 140844Z 00007KT 21/18 A2999 RMK A01 T02120183  RH  084%=      5-min Rain = 0
KCL1 140845Z 36007KT 21/18 A2999 RMK A01 T02120183  RH  083%=      5-min Rain = 0
KCL1 140846Z 00007KT 21/18 A2999 RMK A01 T02130183  RH  083%=      5-min Rain = 0
KCL1 140847Z 00008KT 21/18 A2999 RMK A01 T02130184  RH  083%=      5-min Rain = 0
KCL1 140848Z 00007KT 21/18 A2999 RMK A01 T02140184  RH  083%=      5-min Rain = 0
KCL1 140849Z 00008KT 21/18 A2999 RMK A01 T02140183  RH  083%=      5-min Rain = 0
KCL1 140850Z 00008KT 21/18 A2999 RMK A01 T02130184  RH  083%=      5-min Rain = 0
KCL1 140851Z 00008KT 21/18 A2999 RMK A01 T02130183  RH  083%=      5-min Rain = 0
KCL1 140852Z 01008KT 21/18 A2999 RMK A01 T02130182  RH  082%=      5-min Rain = 0
KCL1 140853Z 00008KT 21/18 A2999 RMK A01 T02130182  RH  082%=      5-min Rain = 0
KCL1 140854Z 01008KT 21/18 A2999 RMK A01 T02130182  RH  082%=      5-min Rain = 0
KCL1 140855Z 00008KT 21/18 A2999 RMK A01 T02130181  RH  082%=      5-min Rain = 0
KCL1 140856Z 00008KT 21/18 A2999 RMK A01 T02130182  RH  082%=      5-min Rain = 0
KCL1 140857Z 00007KT 21/18 A2999 RMK A01 T02130181  RH  082%=      5-min Rain = 0
KCL1 140858Z 01007KT 21/18 A2999 RMK A01 T02120182  RH  083%=      5-min Rain = 0
KCL1 140859Z 01008KT 21/18 A2999 RMK A01 T02120183  RH  083%=      5-min Rain = 0
KCL1 140900Z 01008KT 21/18 A2999 RMK A01 T02120184  RH  084%=      5-min Rain = 0
KCL1 140901Z 01008KT 21/18 A2999 RMK A01 T02120183  RH  084%=      5-min Rain = 0
KCL1 140902Z 01008KT 21/18 A2999 RMK A01 T02120183  RH  084%=      5-min Rain = 0
KCL1 140903Z 01008KT 21/18 A2999 RMK A01 T02120184  RH  084%=      5-min Rain = 0
KCL1 140904Z 00008KT 21/18 A2999 RMK A01 T02110184  RH  084%=      5-min Rain = 0
KCL1 140905Z 01007KT 21/18 A2999 RMK A01 T02110184  RH  084%=      5-min Rain = 0
KCL1 140906Z 00007KT 21/19 A2999 RMK A01 T02110185  RH  085%=      5-min Rain = 0
KCL1 140907Z 00007KT 21/18 A2999 RMK A01 T02110184  RH  085%=      5-min Rain = 0
KCL1 140908Z 00007KT 21/19 A2999 RMK A01 T02110185  RH  085%=      5-min Rain = 0
KCL1 140909Z 00007KT 21/19 A2999 RMK A01 T02110185  RH  085%=      5-min Rain = 0
KCL1 140910Z 00007KT 21/19 A2999 RMK A01 T02100185  RH  085%=      5-min Rain = 0
KCL1 140911Z 00007KT 21/19 A2999 RMK A01 T02100185  RH  085%=      5-min Rain = 0
KCL1 140912Z 00007KT 21/19 A2999 RMK A01 T02100186  RH  086%=      5-min Rain = 0
KCL1 140913Z 00007KT 21/19 A2999 RMK A01 T02100187  RH  087%=      5-min Rain = 0
KCL1 140914Z 36007KT 21/19 A2999 RMK A01 T02100186  RH  086%=      5-min Rain = 0
KCL1 140915Z 36007KT 21/19 A2999 RMK A01 T02100185  RH  086%=      5-min Rain = 0
KCL1 140916Z 35006KT 21/18 A2999 RMK A01 T02100184  RH  085%=      5-min Rain = 0
KCL1 140917Z 35005KT 21/18 A2999 RMK A01 T02090183  RH  085%=      5-min Rain = 0
KCL1 140918Z 35005KT 21/18 A2999 RMK A01 T02090182  RH  085%=      5-min Rain = 0
KCL1 140919Z 33004KT 21/18 A2999 RMK A01 T02080183  RH  086%=      5-min Rain = 0
KCL1 140920Z 32003KT 21/18 A2999 RMK A01 T02080184  RH  086%=      5-min Rain = 0
KCL1 140921Z 31003KT 21/18 A2999 RMK A01 T02080184  RH  086%=      5-min Rain = 0
KCL1 140922Z 28002KT 21/18 A2999 RMK A01 T02080182  RH  085%=      5-min Rain = 0
KCL1 140923Z 29003KT 21/19 A2999 RMK A01 T02080185  RH  087%=      5-min Rain = 0
KCL1 140924Z 28003KT 21/19 A30 RMK A01 T02080186  RH  087%=      5-min Rain = 0
KCL1 140925Z 29003KT 21/19 A30 RMK A01 T02080187  RH  088%=      5-min Rain = 0
KCL1 140926Z 31003KT 21/19 A30 RMK A01 T02080186  RH  087%=      5-min Rain = 0
KCL1 140927Z 31002KT 21/19 A30 RMK A01 T02090187  RH  087%=      5-min Rain = 0
KCL1 140928Z 30002KT 21/19 A30 RMK A01 T02090189  RH  088%=      5-min Rain = 0
KCL1 140929Z 32002KT 21/19 A30 RMK A01 T02090190  RH  089%=      5-min Rain = 0
KCL1 140930Z 33002KT 21/19 A30 RMK A01 T02100194  RH  091%=      5-min Rain = 0
KCL1 140931Z 33003KT 21/19 A30 RMK A01 T02110189  RH  087%=      5-min Rain = 0
KCL1 140932Z 33003KT 21/19 A30 RMK A01 T02100186  RH  086%=      5-min Rain = 0
KCL1 140933Z 33002KT 21/19 A30 RMK A01 T02100187  RH  087%=      5-min Rain = 0
KCL1 140934Z 33001KT 21/19 A30 RMK A01 T02090186  RH  086%=      5-min Rain = 0
KCL1 140935Z 34002KT 21/19 A2999 RMK A01 T02090186  RH  086%=      5-min Rain = 0
KCL1 140936Z 36003KT 21/19 A2999 RMK A01 T02090187  RH  087%=      5-min Rain = 0
KCL1 140937Z 00003KT 21/19 A2999 RMK A01 T02090188  RH  088%=      5-min Rain = 0
KCL1 140938Z 00004KT 21/19 A2999 RMK A01 T02090188  RH  088%=      5-min Rain = 0
KCL1 140939Z 00004KT 21/19 A2999 RMK A01 T02080189  RH  089%=      5-min Rain = 0
KCL1 140940Z 00004KT 21/19 A2999 RMK A01 T02070192  RH  091%=      5-min Rain = 0
KCL1 140941Z 00005KT 21/20 A2999 RMK A01 T02070196  RH  093%=      5-min Rain = 0
KCL1 140942Z 36005KT 21/20 A2999 RMK A01 T02070198  RH  094%=      5-min Rain = 0
KCL1 140943Z 35005KT 21/20 A2999 RMK A01 T02070200  RH  096%=      5-min Rain = 0
KCL1 140944Z 34005KT 21/20 A2999 RMK A01 T02070200  RH  096%=      5-min Rain = 0
KCL1 140945Z 34004KT 21/20 A2999 RMK A01 T02070198  RH  095%=      5-min Rain = 0
KCL1 140946Z 34004KT 21/20 A2999 RMK A01 T02060196  RH  094%=      5-min Rain = 0
KCL1 140947Z 35003KT 21/20 A2999 RMK A01 T02050195  RH  094%=      5-min Rain = 0
KCL1 140948Z 36004KT 21/20 A2999 RMK A01 T02050197  RH  095%=      5-min Rain = 0
KCL1 140949Z 00004KT 20/20 A2999 RMK A01 T02040198  RH  096%=      5-min Rain = 0
KCL1 140950Z 00005KT 20/20 A2999 RMK A01 T02030200  RH  098%=      5-min Rain = 0
KCL1 140951Z 01005KT 20/20 A2999 RMK A01 T02030203  RH  100%=      5-min Rain = 0
KCL1 140952Z 01005KT 20/20 A2999 RMK A01 T02030203  RH  100%=      5-min Rain = 0
KCL1 140953Z 01005KT 20/20 A2999 RMK A01 T02030203  RH  100%=      5-min Rain = 0
KCL1 140954Z 01005KT 20/20 A2999 RMK A01 T02030203  RH  100%=      5-min Rain = 0
KCL1 140955Z 01005KT 20/20 A2999 RMK A01 T02020203  RH  100%=      5-min Rain = 0
KCL1 140956Z 01005KT 20/20 A2999 RMK A01 T02020203  RH  100%=      5-min Rain = 0
KCL1 140957Z 01005KT 20/20 A2999 RMK A01 T02020202  RH  100%=      5-min Rain = 0
KCL1 140958Z 01004KT 20/20 A2999 RMK A01 T02020202  RH  100%=      5-min Rain = 0
KCL1 140959Z 01004KT 20/20 A2999 RMK A01 T02030203  RH  100%=      5-min Rain = 0
KCL1 141000Z 01004KT 20/20 A2999 RMK A01 T02030203  RH  100%=      5-min Rain = 0
KCL1 141001Z 00004KT 20/20 A2999 RMK A01 T02040204  RH  100%=      5-min Rain = 0
KCL1 141002Z 00004KT 20/21 A2999 RMK A01 T02040205  RH  100%=      5-min Rain = 0
KCL1 141003Z 00004KT 20/20 A2999 RMK A01 T02040204  RH  100%=      5-min Rain = 0
KCL1 141004Z 00004KT 21/21 A2999 RMK A01 T02050205  RH  100%=      5-min Rain = 0
KCL1 141005Z 00004KT 21/21 A2999 RMK A01 T02050205  RH  100%=      5-min Rain = 0
KCL1 141006Z 00004KT 21/21 A2999 RMK A01 T02060206  RH  100%=      5-min Rain = 0
KCL1 141007Z 01004KT 21/21 A2999 RMK A01 T02070207  RH  100%=      5-min Rain = 0
KCL1 141008Z 01004KT 21/21 A2999 RMK A01 T02070207  RH  100%=      5-min Rain = 0
KCL1 141009Z 01005KT 21/21 A2999 RMK A01 T02080208  RH  100%=      5-min Rain = 0
KCL1 141010Z 01005KT 21/21 A2999 RMK A01 T02080209  RH  100%=      5-min Rain = 0
KCL1 141011Z 00005KT 21/21 A2999 RMK A01 T02090209  RH  100%=      5-min Rain = 0
KCL1 141012Z 00006KT 21/21 A2999 RMK A01 T02090209  RH  100%=      5-min Rain = 0
KCL1 141013Z 36006KT 21/21 A2999 RMK A01 T02100210  RH  100%=      5-min Rain = 0
KCL1 141014Z 00007KT 21/21 A2999 RMK A01 T02100210  RH  100%=      5-min Rain = 0
KCL1 141015Z 00006KT 21/21 A2999 RMK A01 T02100211  RH  100%=      5-min Rain = 0
KCL1 141016Z 00006KT 21/21 A2999 RMK A01 T02100210  RH  100%=      5-min Rain = 0
KCL1 141017Z 00006KT 21/21 A2999 RMK A01 T02100211  RH  100%=      5-min Rain = 0
KCL1 141018Z 00007KT 21/21 A2999 RMK A01 T02110211  RH  100%=      5-min Rain = 0
KCL1 141019Z 00007KT 21/21 A2999 RMK A01 T02100210  RH  100%=      5-min Rain = 0
KCL1 141020Z 00006KT 21/21 A2999 RMK A01 T02100210  RH  100%=      5-min Rain = 0
KCL1 141021Z 00007KT 21/21 A2999 RMK A01 T02100210  RH  100%=      5-min Rain = 0
KCL1 141022Z 00007KT 21/21 A2999 RMK A01 T02100211  RH  100%=      5-min Rain = 0
KCL1 141023Z 00007KT 21/21 A2999 RMK A01 T02100210  RH  100%=      5-min Rain = 0
KCL1 141024Z 00007KT 21/21 A2999 RMK A01 T02100210  RH  100%=      5-min Rain = 0
KCL1 141025Z 01007KT 21/21 A2999 RMK A01 T02100210  RH  100%=      5-min Rain = 0
KCL1 141026Z 00007KT 21/21 A2999 RMK A01 T02100210  RH  100%=      5-min Rain = 0
KCL1 141027Z 01007KT 21/21 A2999 RMK A01 T02090209  RH  100%=      5-min Rain = 0
KCL1 141028Z 00007KT 21/21 A2999 RMK A01 T02090209  RH  100%=      5-min Rain = 0
KCL1 141029Z 01007KT 21/21 A2999 RMK A01 T02090209  RH  100%=      5-min Rain = 0
KCL1 141030Z 01008KT 21/21 A2999 RMK A01 T02070208  RH  100%=      5-min Rain = 0
KCL1 141031Z 00007KT 21/21 A2999 RMK A01 T02060207  RH  100%=      5-min Rain = 0
KCL1 141032Z 00006KT 21/21 A2999 RMK A01 T02060206  RH  100%=      5-min Rain = 0
KCL1 141033Z 00007KT 21/21 A2999 RMK A01 T02050205  RH  100%=      5-min Rain = 0
KCL1 141034Z 01007KT 20/20 A2999 RMK A01 T02040204  RH  100%=      5-min Rain = 0
KCL1 141035Z 01007KT 20/20 A2999 RMK A01 T02030204  RH  100%=      5-min Rain = 0
KCL1 141036Z 01007KT 20/20 A2999 RMK A01 T02020203  RH  100%=      5-min Rain = 0
KCL1 141037Z 01007KT 20/20 A2999 RMK A01 T02020202  RH  100%=      5-min Rain = 0
KCL1 141038Z 00007KT 20/20 A2999 RMK A01 T02010201  RH  100%=      5-min Rain = 0
KCL1 141039Z 01007KT 20/20 A2999 RMK A01 T02000200  RH  100%=      5-min Rain = 0
KCL1 141040Z 01007KT 20/20 A2999 RMK A01 T01990199  RH  100%=      5-min Rain = 0
KCL1 141041Z 01006KT 20/20 A2999 RMK A01 T01990199  RH  100%=      5-min Rain = 0
KCL1 141042Z 01006KT 20/20 A2999 RMK A01 T01990199  RH  100%=      5-min Rain = 0
KCL1 141043Z 02006KT 20/20 A2999 RMK A01 T01990199  RH  100%=      5-min Rain = 0
KCL1 141044Z 02006KT 20/20 A2999 RMK A01 T01990199  RH  100%=      5-min Rain = 0
KCL1 141045Z 02006KT 20/20 A2999 RMK A01 T01990200  RH  100%=      5-min Rain = 0
KCL1 141046Z 02006KT 20/20 A2999 RMK A01 T02000200  RH  100%=      5-min Rain = 0
KCL1 141047Z 03006KT 20/20 A2999 RMK A01 T02000200  RH  100%=      5-min Rain = 0
KCL1 141048Z 03006KT 20/20 A2999 RMK A01 T02000200  RH  100%=      5-min Rain = 0
KCL1 141049Z 03005KT 20/20 A2999 RMK A01 T02000200  RH  100%=      5-min Rain = 0
KCL1 141050Z 03005KT 20/20 A2999 RMK A01 T02000200  RH  100%=      5-min Rain = 0
KCL1 141051Z 03006KT 20/20 A2999 RMK A01 T02000200  RH  100%=      5-min Rain = 0
KCL1 141052Z 03006KT 20/20 A2999 RMK A01 T02000200  RH  100%=      5-min Rain = 0
KCL1 141053Z 03006KT 20/20 A2999 RMK A01 T02000200  RH  100%=      5-min Rain = 0
KCL1 141054Z 03006KT 20/20 A2999 RMK A01 T02000200  RH  100%=      5-min Rain = 0
KCL1 141055Z 03006KT 20/20 A2999 RMK A01 T02000200  RH  100%=      5-min Rain = 0
KCL1 141056Z 03006KT 20/20 A2999 RMK A01 T02010201  RH  100%=      5-min Rain = 0
KCL1 141057Z 03006KT 20/20 A2999 RMK A01 T02010202  RH  100%=      5-min Rain = 0
KCL1 141058Z 04006KT 20/20 A2999 RMK A01 T02020202  RH  100%=      5-min Rain = 0
KCL1 141059Z 04006KT 20/20 A2999 RMK A01 T02020202  RH  100%=      5-min Rain = 0
KCL1 141100Z 04006KT 20/20 A2999 RMK A01 T02020202  RH  100%=      5-min Rain = 0
KCL1 141101Z 04006KT 20/20 A2999 RMK A01 T02020202  RH  100%=      5-min Rain = 0
KCL1 141102Z 04006KT 20/20 A2999 RMK A01 T02020202  RH  100%=      5-min Rain = 0
KCL1 141103Z 04006KT 20/20 A2999 RMK A01 T02020202  RH  100%=      5-min Rain = 0
KCL1 141104Z 04006KT 20/20 A2999 RMK A01 T02010201  RH  100%=      5-min Rain = 0
KCL1 141105Z 04006KT 20/20 A2999 RMK A01 T02010201  RH  100%=      5-min Rain = 0
KCL1 141106Z 04006KT 20/20 A2999 RMK A01 T02010201  RH  100%=      5-min Rain = 0
KCL1 141107Z 04005KT 20/20 A2999 RMK A01 T02010201  RH  100%=      5-min Rain = 0
KCL1 141108Z 04005KT 20/20 A2999 RMK A01 T02010201  RH  100%=      5-min Rain = 0
KCL1 141109Z 04005KT 20/20 A2999 RMK A01 T02020202  RH  100%=      5-min Rain = 0
KCL1 141110Z 04005KT 20/20 A2999 RMK A01 T02030203  RH  100%=      5-min Rain = 0
KCL1 141111Z 04006KT 20/20 A2999 RMK A01 T02030203  RH  100%=      5-min Rain = 0
KCL1 141112Z 04006KT 20/20 A2999 RMK A01 T02040204  RH  100%=      5-min Rain = 0
KCL1 141113Z 04006KT 20/20 A2999 RMK A01 T02040204  RH  100%=      5-min Rain = 0
KCL1 141114Z 04006KT 20/20 A2999 RMK A01 T02040204  RH  100%=      5-min Rain = 0
KCL1 141115Z 04006KT 20/20 A2999 RMK A01 T02040204  RH  100%=      5-min Rain = 0
KCL1 141116Z 04006KT 20/20 A2999 RMK A01 T02040204  RH  100%=      5-min Rain = 0
KCL1 141117Z 04006KT 20/20 A2999 RMK A01 T02040204  RH  100%=      5-min Rain = 0
KCL1 141118Z 04006KT 20/20 A2999 RMK A01 T02040204  RH  100%=      5-min Rain = 0
KCL1 141119Z 04005KT 20/20 A2999 RMK A01 T02030203  RH  100%=      5-min Rain = 0
KCL1 141120Z 04005KT 20/20 A2999 RMK A01 T02030203  RH  100%=      5-min Rain = 0
KCL1 141121Z 04005KT 20/20 A2999 RMK A01 T02030203  RH  100%=      5-min Rain = 0
KCL1 141122Z 04005KT 20/20 A2999 RMK A01 T02020202  RH  100%=      5-min Rain = 0
KCL1 141123Z 04005KT 20/20 A2999 RMK A01 T02020202  RH  100%=      5-min Rain = 0
KCL1 141124Z 04005KT 20/20 A2999 RMK A01 T02020202  RH  100%=      5-min Rain = 0
KCL1 141125Z 03005KT 20/20 A2999 RMK A01 T02020202  RH  100%=      5-min Rain = 0
KCL1 141126Z 03005KT 20/20 A2999 RMK A01 T02020203  RH  100%=      5-min Rain = 0
KCL1 141127Z 03005KT 20/20 A2999 RMK A01 T02020202  RH  100%=      5-min Rain = 0
KCL1 141128Z 02006KT 20/20 A2999 RMK A01 T02020202  RH  100%=      5-min Rain = 0
KCL1 141129Z 02007KT 20/20 A2999 RMK A01 T02010201  RH  100%=      5-min Rain = 0
KCL1 141130Z 01008KT 20/20 A2999 RMK A01 T02000200  RH  100%=      5-min Rain = 0
KCL1 141131Z 01008KT 20/20 A2999 RMK A01 T01980199  RH  100%=      5-min Rain = 0
KCL1 141132Z 01008KT 20/20 A2999 RMK A01 T01970197  RH  100%=      5-min Rain = 0
KCL1 141133Z 01007KT 20/20 A2999 RMK A01 T01970197  RH  100%=      5-min Rain = 0
KCL1 141134Z 01007KT 20/20 A2999 RMK A01 T01960196  RH  100%=      5-min Rain = 0
KCL1 141135Z 01006KT 20/20 A2999 RMK A01 T01960196  RH  100%=      5-min Rain = 0
KCL1 141136Z 02006KT 20/20 A2999 RMK A01 T01960196  RH  100%=      5-min Rain = 0
KCL1 141137Z 02006KT 20/20 A2999 RMK A01 T01960196  RH  100%=      5-min Rain = 0
KCL1 141138Z 02006KT 20/20 A2999 RMK A01 T01970197  RH  100%=      5-min Rain = 0
KCL1 141139Z 01007KT 20/20 A2999 RMK A01 T01980198  RH  100%=      5-min Rain = 0
KCL1 141140Z 01007KT 20/20 A2999 RMK A01 T01990199  RH  100%=      5-min Rain = 0
KCL1 141141Z 00008KT 20/20 A2999 RMK A01 T02000200  RH  100%=      5-min Rain = 0
KCL1 141142Z 00007KT 20/20 A30 RMK A01 T02000200  RH  100%=      5-min Rain = 0
KCL1 141143Z 36007KT 20/20 A30 RMK A01 T02000200  RH  100%=      5-min Rain = 0
KCL1 141144Z 35007KT 20/20 A30 RMK A01 T02000201  RH  100%=      5-min Rain = 0
KCL1 141145Z 35006KT 20/20 A30 RMK A01 T02010201  RH  100%=      5-min Rain = 0
KCL1 141146Z 35006KT 20/20 A30 RMK A01 T02010201  RH  100%=      5-min Rain = 0
KCL1 141147Z 33005KT 20/20 A30 RMK A01 T02010201  RH  100%=      5-min Rain = 0
KCL1 141148Z 32004KT 20/20 A30 RMK A01 T02010202  RH  100%=      5-min Rain = 0
KCL1 141149Z 31004KT 20/20 A3001 RMK A01 T02010201  RH  100%=      5-min Rain = 0
KCL1 141150Z 32004KT 20/20 A3001 RMK A01 T02020202  RH  100%=      5-min Rain = 0
KCL1 141151Z 28004KT 20/20 A3001 RMK A01 T02020202  RH  100%=      5-min Rain = 0
KCL1 141152Z 26003KT 20/20 A3001 RMK A01 T02020202  RH  100%=      5-min Rain = 0
KCL1 141153Z 26004KT 20/20 A3002 RMK A01 T02030203  RH  100%=      5-min Rain = 0
KCL1 141154Z 27006KT 20/20 A3002 RMK A01 T02040204  RH  100%=      5-min Rain = 0
KCL1 141155Z 29009KT 21/21 A3002 RMK A01 T02050205  RH  100%=      5-min Rain = 0
KCL1 141156Z 28012KT 21/21 A3002 RMK A01 T02050206  RH  100%=      5-min Rain = 0
KCL1 141157Z 28013G18KT 20/21 A3002 RMK A01 T02040205  RH  100%=      5-min Rain = 0
KCL1 141158Z 28007KT 20/20 A3002 RMK A01 T02030203  RH  100%=      5-min Rain = 0
KCL1 141159Z 31004KT 20/20 A3002 RMK A01 T02020202  RH  100%=      5-min Rain = 0
KCL1 141200Z 32003KT 20/20 A3001 RMK A01 T02020202  RH  100%=      5-min Rain = 0
KCL1 141201Z 32004KT 20/20 A3001 RMK A01 T02020202  RH  100%=      5-min Rain = 0
KCL1 141202Z 34004KT 20/20 A3001 RMK A01 T02010201  RH  100%=      5-min Rain = 0
KCL1 141203Z 32005KT 20/20 A3001 RMK A01 T02010201  RH  100%=      5-min Rain = 0
KCL1 141204Z 31005KT 20/20 A3001 RMK A01 T02010201  RH  100%=      5-min Rain = 0
KCL1 141205Z 30008KT 20/20 A3002 RMK A01 T02010201  RH  100%=      5-min Rain = 0
KCL1 141206Z 29010KT 20/20 A3002 RMK A01 T02020202  RH  100%=      5-min Rain = 0
KCL1 141207Z 28009KT 20/20 A3002 RMK A01 T02040204  RH  100%=      5-min Rain = 0
KCL1 141208Z 29011KT 21/21 A3002 RMK A01 T02080208  RH  100%=      5-min Rain = 0
KCL1 141209Z 31009KT 21/21 A3002 RMK A01 T02100210  RH  100%=      5-min Rain = 0
KCL1 141210Z 33007KT 21/21 A3002 RMK A01 T02110211  RH  100%=      5-min Rain = 0
KCL1 141211Z 33007KT 21/21 A3001 RMK A01 T02120212  RH  100%=      5-min Rain = 0
KCL1 141212Z 33007KT 21/21 A3001 RMK A01 T02120212  RH  100%=      5-min Rain = 0
KCL1 141213Z 33007KT 21/21 A3001 RMK A01 T02130213  RH  100%=      5-min Rain = 0
KCL1 141214Z 31006KT 21/21 A3002 RMK A01 T02130213  RH  100%=      5-min Rain = 0
KCL1 141215Z 29007KT 21/21 A3002 RMK A01 T02140214  RH  100%=      5-min Rain = 0
KCL1 141216Z 28008KT 21/21 A3002 RMK A01 T02140214  RH  100%=      5-min Rain = 0
KCL1 141217Z 28009KT 21/21 A3003 RMK A01 T02140214  RH  100%=      5-min Rain = 0
KCL1 141218Z 28006KT 22/21 A3003 RMK A01 T02160213  RH  098%=      5-min Rain = 0
KCL1 141219Z 28005KT 22/21 A3003 RMK A01 T02170213  RH  097%=      5-min Rain = 0
KCL1 141220Z 31006KT 22/21 A3002 RMK A01 T02170212  RH  097%=      5-min Rain = 0
KCL1 141221Z 33004KT 22/21 A3002 RMK A01 T02170212  RH  097%=      5-min Rain = 0
KCL1 141222Z 33006KT 22/21 A3002 RMK A01 T02170212  RH  097%=      5-min Rain = 0
KCL1 141223Z 33005KT 22/21 A3001 RMK A01 T02160214  RH  099%=      5-min Rain = 0
KCL1 141224Z 32005KT 22/21 A3001 RMK A01 T02160214  RH  099%=      5-min Rain = 0
KCL1 141225Z 30003KT 22/21 A3002 RMK A01 T02160214  RH  099%=      5-min Rain = 0
KCL1 141226Z 25004KT 22/22 A3002 RMK A01 T02170215  RH  099%=      5-min Rain = 0
KCL1 141227Z 25006KT 22/22 A3002 RMK A01 T02160216  RH  100%=      5-min Rain = 0
KCL1 141228Z 25007KT 22/22 A3002 RMK A01 T02170216  RH  100%=      5-min Rain = 0
KCL1 141229Z 27006KT 22/22 A3003 RMK A01 T02180215  RH  098%=      5-min Rain = 0
KCL1 141230Z 28005KT 22/21 A3003 RMK A01 T02180214  RH  098%=      5-min Rain = 0
KCL1 141231Z 29005KT 22/21 A3002 RMK A01 T02190214  RH  097%=      5-min Rain = 0
KCL1 141232Z 32008KT 22/22 A3002 RMK A01 T02190215  RH  098%=      5-min Rain = 0
KCL1 141233Z 32007KT 22/22 A3002 RMK A01 T02200215  RH  097%=      5-min Rain = 0
KCL1 141234Z 32007KT 22/21 A3002 RMK A01 T02190213  RH  096%=      5-min Rain = 0
KCL1 141235Z 33005KT 22/21 A3002 RMK A01 T02190214  RH  097%=      5-min Rain = 0
KCL1 141236Z 31004KT 22/21 A3002 RMK A01 T02200213  RH  096%=      5-min Rain = 0
KCL1 141237Z 31004KT 22/21 A3002 RMK A01 T02190214  RH  097%=      5-min Rain = 0
KCL1 141238Z 30004KT 22/22 A3002 RMK A01 T02200215  RH  097%=      5-min Rain = 0
KCL1 141239Z 29003KT 22/22 A3002 RMK A01 T02190215  RH  097%=      5-min Rain = 0
KCL1 141240Z 28003KT 22/22 A3002 RMK A01 T02200215  RH  097%=      5-min Rain = 0
KCL1 141241Z 28004KT 22/22 A3002 RMK A01 T02200215  RH  097%=      5-min Rain = 0
KCL1 141242Z 30004KT 22/22 A3002 RMK A01 T02200215  RH  097%=      5-min Rain = 0
KCL1 141243Z 32003KT 22/22 A3002 RMK A01 T02200215  RH  097%=      5-min Rain = 0
KCL1 141244Z 34003KT 22/22 A3002 RMK A01 T02200215  RH  097%=      5-min Rain = 0
KCL1 141245Z 33005KT 22/21 A3001 RMK A01 T02190214  RH  097%=      5-min Rain = 0
KCL1 141246Z 34006KT 22/22 A3001 RMK A01 T02200215  RH  097%=      5-min Rain = 0
KCL1 141247Z 33007KT 22/21 A3001 RMK A01 T02190214  RH  097%=      5-min Rain = 0
KCL1 141248Z 34007KT 22/21 A3001 RMK A01 T02200214  RH  096%=      5-min Rain = 0
KCL1 141249Z 33007KT 22/21 A3001 RMK A01 T02200214  RH  096%=      5-min Rain = 0
KCL1 141250Z 33007KT 22/21 A3001 RMK A01 T02200213  RH  096%=      5-min Rain = 0
KCL1 141251Z 32006KT 22/21 A3001 RMK A01 T02210213  RH  095%=      5-min Rain = 0
KCL1 141252Z 32005KT 22/21 A3001 RMK A01 T02210213  RH  095%=      5-min Rain = 0
KCL1 141253Z 31003KT 22/21 A3001 RMK A01 T02220213  RH  095%=      5-min Rain = 0
KCL1 141254Z 28001KT 22/21 A3001 RMK A01 T02220213  RH  094%=      5-min Rain = 0
KCL1 141255Z 26002KT 22/21 A3001 RMK A01 T02230213  RH  094%=      5-min Rain = 0
KCL1 141256Z 26002KT 22/21 A3002 RMK A01 T02240212  RH  093%=      5-min Rain = 0
KCL1 141257Z 30003KT 23/21 A3002 RMK A01 T02250211  RH  092%=      5-min Rain = 0
KCL1 141258Z 31003KT 23/21 A3001 RMK A01 T02260211  RH  091%=      5-min Rain = 0
KCL1 141259Z 34002KT 23/21 A3001 RMK A01 T02270210  RH  090%=      5-min Rain = 0
KCL1 141300Z 34004KT 23/21 A3001 RMK A01 T02280209  RH  089%=      5-min Rain = 0
KCL1 141301Z 32002KT 23/21 A3001 RMK A01 T02290209  RH  088%=      5-min Rain = 0
KCL1 141302Z 31003KT 23/21 A3001 RMK A01 T02300207  RH  087%=      5-min Rain = 0
KCL1 141303Z 29002KT 23/21 A3002 RMK A01 T02310207  RH  087%=      5-min Rain = 0
KCL1 141304Z 25003KT 23/21 A3002 RMK A01 T02310207  RH  086%=      5-min Rain = 0
KCL1 141305Z 28004KT 23/21 A3002 RMK A01 T02310207  RH  086%=      5-min Rain = 0
KCL1 141306Z 29004KT 23/21 A3002 RMK A01 T02320206  RH  086%=      5-min Rain = 0
KCL1 141307Z 30004KT 23/21 A3002 RMK A01 T02320206  RH  086%=      5-min Rain = 0
KCL1 141308Z 31004KT 23/21 A3002 RMK A01 T02310206  RH  086%=      5-min Rain = 0
KCL1 141309Z 32003KT 23/21 A3002 RMK A01 T02310206  RH  086%=      5-min Rain = 0
KCL1 141310Z 35002KT 23/21 A3002 RMK A01 T02320207  RH  086%=      5-min Rain = 0
KCL1 141311Z 34003KT 23/21 A3002 RMK A01 T02320206  RH  085%=      5-min Rain = 0
KCL1 141312Z 33002KT 23/21 A3002 RMK A01 T02330207  RH  085%=      5-min Rain = 0
KCL1 141313Z 32002KT 23/21 A3002 RMK A01 T02330206  RH  084%=      5-min Rain = 0
KCL1 141314Z 30003KT 23/21 A3002 RMK A01 T02330205  RH  084%=      5-min Rain = 0
KCL1 141315Z 29003KT 23/21 A3002 RMK A01 T02330205  RH  084%=      5-min Rain = 0
KCL1 141316Z 31003KT 23/21 A3002 RMK A01 T02330206  RH  085%=      5-min Rain = 0
KCL1 141317Z 29002KT 23/21 A3002 RMK A01 T02330206  RH  084%=      5-min Rain = 0
KCL1 141318Z 30003KT 23/21 A3002 RMK A01 T02330206  RH  085%=      5-min Rain = 0
KCL1 141319Z 32003KT 23/21 A3002 RMK A01 T02330206  RH  084%=      5-min Rain = 0
KCL1 141320Z 33004KT 23/21 A3002 RMK A01 T02340205  RH  084%=      5-min Rain = 0
KCL1 141321Z 33003KT 23/21 A3001 RMK A01 T02340205  RH  084%=      5-min Rain = 0
KCL1 141322Z 33004KT 23/21 A3001 RMK A01 T02340206  RH  084%=      5-min Rain = 0
KCL1 141323Z 32006KT 23/21 A3001 RMK A01 T02340205  RH  084%=      5-min Rain = 0
KCL1 141324Z 32006KT 23/21 A3002 RMK A01 T02340205  RH  083%=      5-min Rain = 0
KCL1 141325Z 32006KT 24/21 A3002 RMK A01 T02350205  RH  083%=      5-min Rain = 0
KCL1 141326Z 32005KT 24/21 A3002 RMK A01 T02350205  RH  083%=      5-min Rain = 0
KCL1 141327Z 32005KT 24/21 A3002 RMK A01 T02350205  RH  083%=      5-min Rain = 0
KCL1 141328Z 33007KT 24/21 A3002 RMK A01 T02350205  RH  083%=      5-min Rain = 0
KCL1 141329Z 33005KT 24/21 A3001 RMK A01 T02350205  RH  083%=      5-min Rain = 0
KCL1 141330Z 34006KT 23/21 A3001 RMK A01 T02340205  RH  084%=      5-min Rain = 0
KCL1 141331Z 34008KT 23/21 A3002 RMK A01 T02330205  RH  084%=      5-min Rain = 0
KCL1 141332Z 34007KT 23/21 A3002 RMK A01 T02330205  RH  084%=      5-min Rain = 0
KCL1 141333Z 34008KT 23/21 A3002 RMK A01 T02330205  RH  084%=      5-min Rain = 0
KCL1 141334Z 34008KT 23/20 A3002 RMK A01 T02320204  RH  084%=      5-min Rain = 0
KCL1 141335Z 34009KT 23/20 A3002 RMK A01 T02320204  RH  084%=      5-min Rain = 0
KCL1 141336Z 34008KT 23/20 A3002 RMK A01 T02320204  RH  084%=      5-min Rain = 0
KCL1 141337Z 34008KT 23/20 A3002 RMK A01 T02310204  RH  084%=      5-min Rain = 0
KCL1 141338Z 34007KT 23/20 A3002 RMK A01 T02310204  RH  084%=      5-min Rain = 0
KCL1 141339Z 34007KT 23/20 A3002 RMK A01 T02320204  RH  084%=      5-min Rain = 0
KCL1 141340Z 33006KT 23/20 A3002 RMK A01 T02310203  RH  084%=      5-min Rain = 0
KCL1 141341Z 32007KT 23/20 A3002 RMK A01 T02320202  RH  083%=      5-min Rain = 0
KCL1 141342Z 33006KT 23/20 A3002 RMK A01 T02320202  RH  083%=      5-min Rain = 0
KCL1 141343Z 34006KT 23/20 A3002 RMK A01 T02340202  RH  082%=      5-min Rain = 0
KCL1 141344Z 35007KT 24/20 A3002 RMK A01 T02350202  RH  082%=      5-min Rain = 0
KCL1 141345Z 35008KT 24/20 A3002 RMK A01 T02360202  RH  081%=      5-min Rain = 0
KCL1 141346Z 35008KT 24/20 A3002 RMK A01 T02370202  RH  081%=      5-min Rain = 0
KCL1 141347Z 35008KT 24/20 A3002 RMK A01 T02380202  RH  080%=      5-min Rain = 0
KCL1 141348Z 35009KT 24/20 A3002 RMK A01 T02380201  RH  080%=      5-min Rain = 0
KCL1 141349Z 35006KT 24/20 A3002 RMK A01 T02380201  RH  080%=      5-min Rain = 0
KCL1 141350Z 36008KT 24/20 A3002 RMK A01 T02380201  RH  080%=      5-min Rain = 0
KCL1 141351Z 36006KT 24/20 A3002 RMK A01 T02380201  RH  079%=      5-min Rain = 0
KCL1 141352Z 35005KT 24/20 A3002 RMK A01 T02390201  RH  079%=      5-min Rain = 0
KCL1 141353Z 35005KT 24/20 A3002 RMK A01 T02400201  RH  079%=      5-min Rain = 0
KCL1 141354Z 35006KT 24/20 A3002 RMK A01 T02410201  RH  078%=      5-min Rain = 0
KCL1 141355Z 35006KT 24/20 A3002 RMK A01 T02420201  RH  078%=      5-min Rain = 0
KCL1 141356Z 35005KT 24/20 A3002 RMK A01 T02440201  RH  077%=      5-min Rain = 0
KCL1 141357Z 34005KT 25/20 A3002 RMK A01 T02460202  RH  076%=      5-min Rain = 0
KCL1 141358Z 34005KT 25/20 A3002 RMK A01 T02470201  RH  076%=      5-min Rain = 0
KCL1 141359Z 33004KT 25/20 A3002 RMK A01 T02470202  RH  076%=      5-min Rain = 0
KCL1 141400Z 33004KT 25/20 A3002 RMK A01 T02480201  RH  075%=      5-min Rain = 0
KCL1 141401Z 34004KT 25/20 A3002 RMK A01 T02480202  RH  075%=      5-min Rain = 0
KCL1 141402Z 33003KT 25/20 A3002 RMK A01 T02500202  RH  075%=      5-min Rain = 0
KCL1 141403Z 32003KT 25/20 A3002 RMK A01 T02510202  RH  074%=      5-min Rain = 0
KCL1 141404Z 32003KT 25/20 A3002 RMK A01 T02520202  RH  074%=      5-min Rain = 0
KCL1 141405Z 31004KT 25/20 A3002 RMK A01 T02520202  RH  074%=      5-min Rain = 0
KCL1 141406Z 30003KT 25/20 A3002 RMK A01 T02520202  RH  074%=      5-min Rain = 0
KCL1 141407Z 30003KT 25/20 A3002 RMK A01 T02530203  RH  074%=      5-min Rain = 0
KCL1 141408Z 30004KT 25/20 A3002 RMK A01 T02530203  RH  073%=      5-min Rain = 0
KCL1 141409Z 30003KT 25/20 A3002 RMK A01 T02540202  RH  073%=      5-min Rain = 0
KCL1 141410Z 31003KT 25/20 A3002 RMK A01 T02540203  RH  073%=      5-min Rain = 0
KCL1 141411Z 30004KT 25/20 A3002 RMK A01 T02540203  RH  073%=      5-min Rain = 0
KCL1 141412Z 30003KT 25/20 A3002 RMK A01 T02540203  RH  074%=      5-min Rain = 0
KCL1 141413Z 29003KT 25/20 A3002 RMK A01 T02540203  RH  074%=      5-min Rain = 0
KCL1 141414Z 26002KT 25/20 A3002 RMK A01 T02530203  RH  073%=      5-min Rain = 0
KCL1 141415Z 24003KT 25/20 A3002 RMK A01 T02530204  RH  074%=      5-min Rain = 0
KCL1 141416Z 23003KT 25/20 A3002 RMK A01 T02540202  RH  073%=      5-min Rain = 0
KCL1 141417Z 24002KT 25/20 A3002 RMK A01 T02540202  RH  073%=      5-min Rain = 0
KCL1 141418Z 25001KT 25/20 A3002 RMK A01 T02530202  RH  073%=      5-min Rain = 0
KCL1 141419Z 27000KT 25/20 A3002 RMK A01 T02520202  RH  073%=      5-min Rain = 0
KCL1 141420Z 27001KT 25/20 A3002 RMK A01 T02530203  RH  074%=      5-min Rain = 0
KCL1 141421Z 27000KT 25/20 A3002 RMK A01 T02530203  RH  073%=      5-min Rain = 0
KCL1 141422Z 00000KT 26/20 A3002 RMK A01 T02550203  RH  073%=      5-min Rain = 0
KCL1 141423Z 32001KT 26/20 A3002 RMK A01 T02560202  RH  072%=      5-min Rain = 0
KCL1 141424Z 31002KT 26/20 A3002 RMK A01 T02570202  RH  072%=      5-min Rain = 0
KCL1 141425Z 32002KT 26/20 A3002 RMK A01 T02570201  RH  071%=      5-min Rain = 0
KCL1 141426Z 34002KT 26/20 A3002 RMK A01 T02580201  RH  071%=      5-min Rain = 0
KCL1 141427Z 00002KT 26/20 A3002 RMK A01 T02590202  RH  071%=      5-min Rain = 0
KCL1 141428Z 33001KT 26/20 A3002 RMK A01 T02590202  RH  071%=      5-min Rain = 0
KCL1 141429Z 30002KT 26/20 A3002 RMK A01 T02610203  RH  070%=      5-min Rain = 0
KCL1 141430Z 27002KT 26/20 A3002 RMK A01 T02620204  RH  070%=      5-min Rain = 0
KCL1 141431Z 27001KT 26/20 A3002 RMK A01 T02640204  RH  069%=      5-min Rain = 0
KCL1 141432Z 36000KT 27/20 A3002 RMK A01 T02660204  RH  069%=      5-min Rain = 0
KCL1 141433Z 33001KT 27/20 A3002 RMK A01 T02690203  RH  067%=      5-min Rain = 0
KCL1 141434Z 29002KT 27/20 A3002 RMK A01 T02700202  RH  066%=      5-min Rain = 0
KCL1 141435Z 25003KT 27/20 A3002 RMK A01 T02710202  RH  066%=      5-min Rain = 0
KCL1 141436Z 24004KT 27/20 A3002 RMK A01 T02720202  RH  066%=      5-min Rain = 0
KCL1 141437Z 22003KT 27/20 A3002 RMK A01 T02720202  RH  066%=      5-min Rain = 0
KCL1 141438Z 22003KT 27/20 A3002 RMK A01 T02720201  RH  065%=      5-min Rain = 0
KCL1 141439Z 22004KT 27/20 A3002 RMK A01 T02720203  RH  066%=      5-min Rain = 0
KCL1 141440Z 21004KT 27/20 A3002 RMK A01 T02720202  RH  065%=      5-min Rain = 0
KCL1 141441Z 23004KT 27/20 A3002 RMK A01 T02720201  RH  065%=      5-min Rain = 0
KCL1 141442Z 23004KT 27/20 A3002 RMK A01 T02700201  RH  066%=      5-min Rain = 0
KCL1 141443Z 23003KT 27/20 A3002 RMK A01 T02700202  RH  066%=      5-min Rain = 0
KCL1 141444Z 26001KT 27/20 A3002 RMK A01 T02710203  RH  066%=      5-min Rain = 0
KCL1 141445Z 29001KT 27/20 A3002 RMK A01 T02740204  RH  066%=      5-min Rain = 0
KCL1 141446Z 29001KT 28/20 A3002 RMK A01 T02760202  RH  064%=      5-min Rain = 0
KCL1 141447Z 26001KT 28/20 A3002 RMK A01 T02770200  RH  063%=      5-min Rain = 0
KCL1 141448Z 26001KT 28/20 A3002 RMK A01 T02780201  RH  063%=      5-min Rain = 0
KCL1 141449Z 00000KT 28/20 A3002 RMK A01 T02790200  RH  062%=      5-min Rain = 0
KCL1 141450Z 32000KT 28/20 A3002 RMK A01 T02810200  RH  061%=      5-min Rain = 0
KCL1 141451Z 24002KT 28/20 A3002 RMK A01 T02830201  RH  061%=      5-min Rain = 0
KCL1 141452Z 24002KT 28/20 A3002 RMK A01 T02830200  RH  061%=      5-min Rain = 0
KCL1 141453Z 24002KT 28/20 A3002 RMK A01 T02830199  RH  060%=      5-min Rain = 0
KCL1 141454Z 26002KT 28/20 A3002 RMK A01 T02830198  RH  060%=      5-min Rain = 0
KCL1 141455Z 26002KT 28/20 A3002 RMK A01 T02830198  RH  060%=      5-min Rain = 0
KCL1 141456Z 24003KT 28/20 A3002 RMK A01 T02840200  RH  060%=      5-min Rain = 0
KCL1 141457Z 25002KT 28/20 A3002 RMK A01 T02840198  RH  060%=      5-min Rain = 0
KCL1 141458Z 24002KT 28/20 A3002 RMK A01 T02840197  RH  060%=      5-min Rain = 0
KCL1 141459Z 25003KT 28/20 A3002 RMK A01 T02840197  RH  059%=      5-min Rain = 0
KCL1 141500Z 24003KT 28/20 A3002 RMK A01 T02840199  RH  060%=      5-min Rain = 0
KCL1 141501Z 27003KT 28/20 A3002 RMK A01 T02840200  RH  060%=      5-min Rain = 0
KCL1 141502Z 24002KT 28/20 A3002 RMK A01 T02840200  RH  060%=      5-min Rain = 0
KCL1 141503Z 26002KT 29/20 A3002 RMK A01 T02850201  RH  060%=      5-min Rain = 0
KCL1 141504Z 24003KT 29/20 A3003 RMK A01 T02860201  RH  060%=      5-min Rain = 0
KCL1 141505Z 24003KT 29/20 A3003 RMK A01 T02860201  RH  060%=      5-min Rain = 0
KCL1 141506Z 24003KT 29/20 A3003 RMK A01 T02860200  RH  060%=      5-min Rain = 0
KCL1 141507Z 24002KT 29/20 A3003 RMK A01 T02870201  RH  060%=      5-min Rain = 0
KCL1 141508Z 26002KT 29/20 A3003 RMK A01 T02880199  RH  058%=      5-min Rain = 0
KCL1 141509Z 26002KT 29/20 A3003 RMK A01 T02890199  RH  058%=      5-min Rain = 0
KCL1 141510Z 26001KT 29/20 A3003 RMK A01 T02900199  RH  058%=      5-min Rain = 0
KCL1 141511Z 25002KT 29/20 A3003 RMK A01 T02910199  RH  058%=      5-min Rain = 0
KCL1 141512Z 26003KT 29/20 A3003 RMK A01 T02910199  RH  057%=      5-min Rain = 0
KCL1 141513Z 28002KT 29/20 A3003 RMK A01 T02910197  RH  057%=      5-min Rain = 0
KCL1 141514Z 29001KT 29/20 A3003 RMK A01 T02920196  RH  056%=      5-min Rain = 0
KCL1 141515Z 31001KT 29/20 A3002 RMK A01 T02940197  RH  056%=      5-min Rain = 0
KCL1 141516Z 30002KT 30/20 A3002 RMK A01 T02950199  RH  056%=      5-min Rain = 0
KCL1 141517Z 33002KT 30/20 A3002 RMK A01 T02980197  RH  054%=      5-min Rain = 0
KCL1 141518Z 32002KT 30/20 A3002 RMK A01 T03010195  RH  053%=      5-min Rain = 0
KCL1 141519Z 33001KT 30/20 A3002 RMK A01 T03030195  RH  052%=      5-min Rain = 0
KCL1 141520Z 32002KT 31/20 A3002 RMK A01 T03050197  RH  052%=      5-min Rain = 0
KCL1 141521Z 30003KT 31/19 A3002 RMK A01 T03070193  RH  051%=      5-min Rain = 0
KCL1 141522Z 27003KT 31/19 A3002 RMK A01 T03100192  RH  050%=      5-min Rain = 0
KCL1 141523Z 26004KT 31/20 A3002 RMK A01 T03110196  RH  050%=      5-min Rain = 0
KCL1 141524Z 26004KT 31/19 A3002 RMK A01 T03120194  RH  050%=      5-min Rain = 0
KCL1 141525Z 28003KT 31/19 A3003 RMK A01 T03120193  RH  049%=      5-min Rain = 0
KCL1 141526Z 27002KT 31/19 A3003 RMK A01 T03120192  RH  049%=      5-min Rain = 0
KCL1 141527Z 25002KT 31/19 A3003 RMK A01 T03120193  RH  049%=      5-min Rain = 0
KCL1 141528Z 26002KT 31/19 A3003 RMK A01 T03120192  RH  049%=      5-min Rain = 0
KCL1 141529Z 25003KT 31/19 A3002 RMK A01 T03120192  RH  049%=      5-min Rain = 0
KCL1 141530Z 26004KT 31/19 A3002 RMK A01 T03140191  RH  048%=      5-min Rain = 0
KCL1 141531Z 27002KT 32/19 A3002 RMK A01 T03150188  RH  047%=      5-min Rain = 0
KCL1 141532Z 27002KT 32/19 A3002 RMK A01 T03150189  RH  047%=      5-min Rain = 0
KCL1 141533Z 27003KT 32/19 A3002 RMK A01 T03170190  RH  047%=      5-min Rain = 0
KCL1 141534Z 28003KT 32/19 A3002 RMK A01 T03170193  RH  048%=      5-min Rain = 0
KCL1 141535Z 28003KT 32/19 A3002 RMK A01 T03200192  RH  047%=      5-min Rain = 0
KCL1 141536Z 26004KT 32/19 A3002 RMK A01 T03210190  RH  046%=      5-min Rain = 0
KCL1 141537Z 27004KT 32/19 A3002 RMK A01 T03210188  RH  045%=      5-min Rain = 0
KCL1 141538Z 27004KT 32/19 A3002 RMK A01 T03220187  RH  045%=      5-min Rain = 0
KCL1 141539Z 26004KT 32/19 A3002 RMK A01 T03220190  RH  046%=      5-min Rain = 0
KCL1 141540Z 26004KT 32/19 A3002 RMK A01 T03230190  RH  045%=      5-min Rain = 0
KCL1 141541Z 25003KT 32/19 A3002 RMK A01 T03230186  RH  044%=      5-min Rain = 0
KCL1 141542Z 25003KT 32/19 A3002 RMK A01 T03240187  RH  044%=      5-min Rain = 0
KCL1 141543Z 23003KT 33/19 A3002 RMK A01 T03250193  RH  046%=      5-min Rain = 0
KCL1 141544Z 22003KT 33/19 A3002 RMK A01 T03260191  RH  045%=      5-min Rain = 0
KCL1 141545Z 24004KT 33/19 A3002 RMK A01 T03270189  RH  044%=      5-min Rain = 0
KCL1 141546Z 23004KT 33/19 A3003 RMK A01 T03280188  RH  044%=      5-min Rain = 0
KCL1 141547Z 23004KT 33/19 A3003 RMK A01 T03280188  RH  044%=      5-min Rain = 0
KCL1 141548Z 22003KT 33/19 A3003 RMK A01 T03280189  RH  044%=      5-min Rain = 0
KCL1 141549Z 21003KT 33/19 A3003 RMK A01 T03270187  RH  044%=      5-min Rain = 0
KCL1 141550Z 22003KT 33/19 A3003 RMK A01 T03270188  RH  044%=      5-min Rain = 0
KCL1 141551Z 23003KT 33/19 A3003 RMK A01 T03270186  RH  043%=      5-min Rain = 0
KCL1 141552Z 25003KT 33/18 A3003 RMK A01 T03260183  RH  043%=      5-min Rain = 0
KCL1 141553Z 23003KT 33/18 A3003 RMK A01 T03260182  RH  042%=      5-min Rain = 0
KCL1 141554Z 22003KT 33/18 A3003 RMK A01 T03250180  RH  042%=      5-min Rain = 0
KCL1 141555Z 24003KT 33/18 A3003 RMK A01 T03260180  RH  042%=      5-min Rain = 0
KCL1 141556Z 26003KT 33/18 A3003 RMK A01 T03290180  RH  041%=      5-min Rain = 0
KCL1 141557Z 26003KT 33/18 A3003 RMK A01 T03320178  RH  040%=      5-min Rain = 0
KCL1 141558Z 27002KT 33/18 A3003 RMK A01 T03340181  RH  040%=      5-min Rain = 0
KCL1 141559Z 29001KT 34/18 A3003 RMK A01 T03350179  RH  040%=      5-min Rain = 0
KCL1 141600Z 25003KT 34/18 A3003 RMK A01 T03360181  RH  040%=      5-min Rain = 0
KCL1 141601Z 23003KT 34/18 A3003 RMK A01 T03370183  RH  040%=      5-min Rain = 0
KCL1 141602Z 24004KT 34/18 A3003 RMK A01 T03390180  RH  039%=      5-min Rain = 0
KCL1 141603Z 23004KT 34/18 A3003 RMK A01 T03390182  RH  040%=      5-min Rain = 0
KCL1 141604Z 23003KT 34/18 A3003 RMK A01 T03380180  RH  039%=      5-min Rain = 0
KCL1 141605Z 28003KT 34/18 A3003 RMK A01 T03360181  RH  040%=      5-min Rain = 0
KCL1 141606Z 30003KT 34/18 A3003 RMK A01 T03370175  RH  038%=      5-min Rain = 0
KCL1 141607Z 01002KT 34/18 A3003 RMK A01 T03360175  RH  038%=      5-min Rain = 0
KCL1 141608Z 19002KT 34/18 A3003 RMK A01 T03370180  RH  039%=      5-min Rain = 0
KCL1 141609Z 26001KT 34/18 A3003 RMK A01 T03380179  RH  039%=      5-min Rain = 0
KCL1 141610Z 23003KT 34/18 A3003 RMK A01 T03380181  RH  039%=      5-min Rain = 0
KCL1 141611Z 19004KT 34/18 A3003 RMK A01 T03370179  RH  039%=      5-min Rain = 0
KCL1 141612Z 22004KT 34/17 A3003 RMK A01 T03380174  RH  038%=      5-min Rain = 0
KCL1 141613Z 24004KT 34/17 A3003 RMK A01 T03380172  RH  037%=      5-min Rain = 0
KCL1 141614Z 23004KT 34/17 A3003 RMK A01 T03380173  RH  037%=      5-min Rain = 0
KCL1 141615Z 23004KT 34/17 A3003 RMK A01 T03390172  RH  037%=      5-min Rain = 0
KCL1 141616Z 21003KT 34/17 A3003 RMK A01 T03390171  RH  037%=      5-min Rain = 0
KCL1 141617Z 20002KT 34/17 A3003 RMK A01 T03380169  RH  037%=      5-min Rain = 0
KCL1 141618Z 23003KT 34/17 A3003 RMK A01 T03390172  RH  037%=      5-min Rain = 0
KCL1 141619Z 18002KT 34/17 A3003 RMK A01 T03410171  RH  036%=      5-min Rain = 0
KCL1 141620Z 18002KT 34/17 A3003 RMK A01 T03420171  RH  036%=      5-min Rain = 0
KCL1 141621Z 24004KT 34/17 A3003 RMK A01 T03440170  RH  036%=      5-min Rain = 0
KCL1 141622Z 23002KT 35/17 A3003 RMK A01 T03450166  RH  034%=      5-min Rain = 0
KCL1 141623Z 21001KT 34/17 A3003 RMK A01 T03430165  RH  035%=      5-min Rain = 0
KCL1 141624Z 21002KT 34/17 A3003 RMK A01 T03430168  RH  035%=      5-min Rain = 0
KCL1 141625Z 26005KT 34/17 A3003 RMK A01 T03420169  RH  036%=      5-min Rain = 0
KCL1 141626Z 26004KT 34/17 A3003 RMK A01 T03420169  RH  036%=      5-min Rain = 0
KCL1 141627Z 26002KT 34/17 A3003 RMK A01 T03420169  RH  036%=      5-min Rain = 0
KCL1 141628Z 28004KT 34/17 A3003 RMK A01 T03420167  RH  035%=      5-min Rain = 0
KCL1 141629Z 30003KT 35/17 A3003 RMK A01 T03460165  RH  034%=      5-min Rain = 0
KCL1 141630Z 33001KT 35/16 A3003 RMK A01 T03470161  RH  033%=      5-min Rain = 0
KCL1 141631Z 34000KT 35/16 A3003 RMK A01 T03470160  RH  033%=      5-min Rain = 0
KCL1 141632Z 26001KT 35/16 A3003 RMK A01 T03490164  RH  033%=      5-min Rain = 0
KCL1 141633Z 30002KT 35/16 A3003 RMK A01 T03530162  RH  032%=      5-min Rain = 0
KCL1 141634Z 31002KT 35/16 A3003 RMK A01 T03540159  RH  031%=      5-min Rain = 0
KCL1 141635Z 27001KT 35/16 A3003 RMK A01 T03520157  RH  031%=      5-min Rain = 0
KCL1 141636Z 22001KT 35/16 A3003 RMK A01 T03520157  RH  031%=      5-min Rain = 0
KCL1 141637Z 19001KT 35/16 A3003 RMK A01 T03520161  RH  032%=      5-min Rain = 0
KCL1 141638Z 13001KT 35/16 A3003 RMK A01 T03520161  RH  032%=      5-min Rain = 0
KCL1 141639Z 14001KT 35/16 A3003 RMK A01 T03530162  RH  032%=      5-min Rain = 0
KCL1 141640Z 31002KT 36/17 A3003 RMK A01 T03560165  RH  032%=      5-min Rain = 0
KCL1 141641Z 32001KT 36/16 A3003 RMK A01 T03590162  RH  031%=      5-min Rain = 0
KCL1 141642Z 32002KT 36/16 A3003 RMK A01 T03590159  RH  031%=      5-min Rain = 0
KCL1 141643Z 31003KT 36/16 A3003 RMK A01 T03580158  RH  031%=      5-min Rain = 0
KCL1 141644Z 34001KT 36/16 A3003 RMK A01 T03560158  RH  031%=      5-min Rain = 0
KCL1 141645Z 03000KT 36/16 A3003 RMK A01 T03560160  RH  031%=      5-min Rain = 0
KCL1 141646Z 06000KT 36/16 A3003 RMK A01 T03580159  RH  031%=      5-min Rain = 0
KCL1 141647Z 19004KT 36/16 A3003 RMK A01 T03610155  RH  029%=      5-min Rain = 0
KCL1 141648Z 20002KT 36/15 A3003 RMK A01 T03640153  RH  029%=      5-min Rain = 0
KCL1 141649Z 20002KT 37/15 A3003 RMK A01 T03660149  RH  028%=      5-min Rain = 0
KCL1 141650Z 21002KT 37/15 A3003 RMK A01 T03650146  RH  027%=      5-min Rain = 0
KCL1 141651Z 19002KT 36/14 A3003 RMK A01 T03610144  RH  027%=      5-min Rain = 0
KCL1 141652Z 20003KT 36/15 A3003 RMK A01 T03600145  RH  028%=      5-min Rain = 0
KCL1 141653Z 19004KT 36/15 A3003 RMK A01 T03600145  RH  028%=      5-min Rain = 0
KCL1 141654Z 20004KT 36/15 A3003 RMK A01 T03600149  RH  028%=      5-min Rain = 0
KCL1 141655Z 18004KT 37/15 A3003 RMK A01 T03650149  RH  028%=      5-min Rain = 0
KCL1 141656Z 22004KT 37/15 A3003 RMK A01 T03670147  RH  027%=      5-min Rain = 0
KCL1 141657Z 22006KT 37/14 A3003 RMK A01 T03660144  RH  027%=      5-min Rain = 0
KCL1 141658Z 22006KT 36/14 A3003 RMK A01 T03620143  RH  027%=      5-min Rain = 0
KCL1 141659Z 22005KT 36/14 A3003 RMK A01 T03600144  RH  028%=      5-min Rain = 0
KCL1 141700Z 24005KT 36/15 A3003 RMK A01 T03580145  RH  028%=      5-min Rain = 0
KCL1 141701Z 22004KT 36/15 A3003 RMK A01 T03580146  RH  028%=      5-min Rain = 0
KCL1 141702Z 20005KT 36/15 A3003 RMK A01 T03590145  RH  028%=      5-min Rain = 0
KCL1 141703Z 17002KT 36/14 A3003 RMK A01 T03580144  RH  028%=      5-min Rain = 0
KCL1 141704Z 20003KT 36/15 A3003 RMK A01 T03580149  RH  029%=      5-min Rain = 0
KCL1 141705Z 21003KT 36/15 A3003 RMK A01 T03600146  RH  028%=      5-min Rain = 0
KCL1 141706Z 20002KT 36/15 A3003 RMK A01 T03620147  RH  028%=      5-min Rain = 0
KCL1 141707Z 20003KT 36/15 A3003 RMK A01 T03630146  RH  028%=      5-min Rain = 0
KCL1 141708Z 22005KT 36/14 A3003 RMK A01 T03630141  RH  027%=      5-min Rain = 0
KCL1 141709Z 23005KT 36/14 A3003 RMK A01 T03620141  RH  027%=      5-min Rain = 0
KCL1 141710Z 22006KT 36/14 A3003 RMK A01 T03620142  RH  027%=      5-min Rain = 0
KCL1 141711Z 20006KT 36/14 A3003 RMK A01 T03620142  RH  027%=      5-min Rain = 0
KCL1 141712Z 18005KT 36/14 A3003 RMK A01 T03620143  RH  027%=      5-min Rain = 0
KCL1 141713Z 20004KT 36/14 A3003 RMK A01 T03620143  RH  027%=      5-min Rain = 0
KCL1 141714Z 21005KT 36/14 A3003 RMK A01 T03640139  RH  026%=      5-min Rain = 0
KCL1 141715Z 22005KT 37/14 A3003 RMK A01 T03660139  RH  026%=      5-min Rain = 0
KCL1 141716Z 21004KT 37/14 A3003 RMK A01 T03670139  RH  026%=      5-min Rain = 0
KCL1 141717Z 21004KT 37/14 A3003 RMK A01 T03680137  RH  025%=      5-min Rain = 0
KCL1 141718Z 18004KT 37/14 A3003 RMK A01 T03660139  RH  026%=      5-min Rain = 0
KCL1 141719Z 17003KT 37/14 A3002 RMK A01 T03670139  RH  026%=      5-min Rain = 0
KCL1 141720Z 19006KT 37/14 A3002 RMK A01 T03700138  RH  025%=      5-min Rain = 0
KCL1 141721Z 20006KT 37/14 A3002 RMK A01 T03710136  RH  025%=      5-min Rain = 0
KCL1 141722Z 18004KT 37/14 A3002 RMK A01 T03700138  RH  025%=      5-min Rain = 0
KCL1 141723Z 19004KT 37/14 A3002 RMK A01 T03690139  RH  025%=      5-min Rain = 0
KCL1 141724Z 20003KT 37/14 A3002 RMK A01 T03690139  RH  025%=      5-min Rain = 0
KCL1 141725Z 21004KT 37/14 A3002 RMK A01 T03690139  RH  025%=      5-min Rain = 0
KCL1 141726Z 22003KT 37/14 A3002 RMK A01 T03670137  RH  025%=      5-min Rain = 0
KCL1 141727Z 21003KT 37/14 A3002 RMK A01 T03650137  RH  026%=      5-min Rain = 0
KCL1 141728Z 20001KT 37/14 A3002 RMK A01 T03650136  RH  026%=      5-min Rain = 0
KCL1 141729Z 15001KT 36/14 A3002 RMK A01 T03640138  RH  026%=      5-min Rain = 0
KCL1 141730Z 09002KT 37/14 A3002 RMK A01 T03660137  RH  026%=      5-min Rain = 0
KCL1 141731Z 20003KT 37/13 A3002 RMK A01 T03670134  RH  025%=      5-min Rain = 0
KCL1 141732Z 19004KT 37/13 A3002 RMK A01 T03670132  RH  024%=      5-min Rain = 0
KCL1 141733Z 19003KT 37/13 A3002 RMK A01 T03680133  RH  025%=      5-min Rain = 0
KCL1 141734Z 23003KT 37/13 A3002 RMK A01 T03710134  RH  024%=      5-min Rain = 0
KCL1 141735Z 22006KT 38/13 A3002 RMK A01 T03750129  RH  023%=      5-min Rain = 0
KCL1 141736Z 23005KT 37/13 A3002 RMK A01 T03740126  RH  023%=      5-min Rain = 0
KCL1 141737Z 23004KT 37/13 A3002 RMK A01 T03730127  RH  023%=      5-min Rain = 0
KCL1 141738Z 26003KT 37/13 A3002 RMK A01 T03720128  RH  023%=      5-min Rain = 0
KCL1 141739Z 26002KT 37/13 A3002 RMK A01 T03740130  RH  023%=      5-min Rain = 0
KCL1 141740Z 27003KT 38/13 A3002 RMK A01 T03770128  RH  023%=      5-min Rain = 0
KCL1 141741Z 28004KT 38/13 A3002 RMK A01 T03780129  RH  023%=      5-min Rain = 0
KCL1 141742Z 30004KT 38/13 A3002 RMK A01 T03790125  RH  022%=      5-min Rain = 0
KCL1 141743Z 29005KT 38/12 A3002 RMK A01 T03770122  RH  022%=      5-min Rain = 0
KCL1 141744Z 27005KT 38/12 A3002 RMK A01 T03770122  RH  022%=      5-min Rain = 0
KCL1 141745Z 25003KT 38/12 A3002 RMK A01 T03790118  RH  021%=      5-min Rain = 0
KCL1 141746Z 28001KT 38/12 A3002 RMK A01 T03780117  RH  021%=      5-min Rain = 0
KCL1 141747Z 26002KT 38/12 A3001 RMK A01 T03780118  RH  021%=      5-min Rain = 0
KCL1 141748Z 00003KT 38/12 A3001 RMK A01 T03780119  RH  021%=      5-min Rain = 0
KCL1 141749Z 36001KT 38/12 A3001 RMK A01 T03770121  RH  022%=      5-min Rain = 0
KCL1 141750Z 34001KT 38/12 A3001 RMK A01 T03780121  RH  022%=      5-min Rain = 0
KCL1 141751Z 29001KT 38/12 A3001 RMK A01 T03800123  RH  021%=      5-min Rain = 0
KCL1 141752Z 22006KT 38/12 A3001 RMK A01 T03830122  RH  021%=      5-min Rain = 0
KCL1 141753Z 22006KT 38/12 A3001 RMK A01 T03830120  RH  021%=      5-min Rain = 0
KCL1 141754Z 21005KT 38/12 A3001 RMK A01 T03800118  RH  021%=      5-min Rain = 0
KCL1 141755Z 20004KT 38/12 A3001 RMK A01 T03760118  RH  021%=      5-min Rain = 0
KCL1 141756Z 17003KT 38/12 A3001 RMK A01 T03760116  RH  021%=      5-min Rain = 0
KCL1 141757Z 14002KT 38/12 A3001 RMK A01 T03770117  RH  021%=      5-min Rain = 0
KCL1 141758Z 15003KT 38/12 A3001 RMK A01 T03810120  RH  021%=      5-min Rain = 0
KCL1 141759Z 22002KT 38/12 A3001 RMK A01 T03840119  RH  021%=      5-min Rain = 0
KCL1 141800Z 26004KT 39/12 A3001 RMK A01 T03850117  RH  020%=      5-min Rain = 0
KCL1 141801Z 27006KT 38/11 A3001 RMK A01 T03840114  RH  020%=      5-min Rain = 0
KCL1 141802Z 26002KT 38/11 A3001 RMK A01 T03810110  RH  020%=      5-min Rain = 0
KCL1 141803Z 24003KT 38/11 A3001 RMK A01 T03770108  RH  020%=      5-min Rain = 0
KCL1 141804Z 25006KT 38/10 A3001 RMK A01 T03770104  RH  019%=      5-min Rain = 0
KCL1 141805Z 25007KT 38/10 A3001 RMK A01 T03780102  RH  019%=      5-min Rain = 0
KCL1 141806Z 27005KT 38/11 A3001 RMK A01 T03800106  RH  019%=      5-min Rain = 0
KCL1 141807Z 26005KT 38/11 A3001 RMK A01 T03830105  RH  019%=      5-min Rain = 0
KCL1 141808Z 24005KT 38/10 A3001 RMK A01 T03840103  RH  019%=      5-min Rain = 0
KCL1 141809Z 23004KT 38/10 A3001 RMK A01 T03830101  RH  018%=      5-min Rain = 0
KCL1 141810Z 21002KT 38/10 A3001 RMK A01 T03790098  RH  018%=      5-min Rain = 0
KCL1 141811Z 19002KT 38/10 A3001 RMK A01 T03780102  RH  019%=      5-min Rain = 0
KCL1 141812Z 18002KT 38/10 A3001 RMK A01 T03770103  RH  019%=      5-min Rain = 0
KCL1 141813Z 20002KT 38/11 A3001 RMK A01 T03780106  RH  019%=      5-min Rain = 0
KCL1 141814Z 22001KT 38/11 A3001 RMK A01 T03800107  RH  019%=      5-min Rain = 0
KCL1 141815Z 18004KT 38/11 A3001 RMK A01 T03810110  RH  020%=      5-min Rain = 0
KCL1 141816Z 19005KT 38/12 A3001 RMK A01 T03840116  RH  020%=      5-min Rain = 0
KCL1 141817Z 21003KT 39/12 A3001 RMK A01 T03860115  RH  020%=      5-min Rain = 0
KCL1 141818Z 19003KT 39/12 A3001 RMK A01 T03850118  RH  020%=      5-min Rain = 0
KCL1 141819Z 20005KT 39/12 A3001 RMK A01 T03860123  RH  021%=      5-min Rain = 0
KCL1 141820Z 21006KT 39/12 A3001 RMK A01 T03880118  RH  020%=      5-min Rain = 0
KCL1 141821Z 19003KT 38/12 A3001 RMK A01 T03840115  RH  020%=      5-min Rain = 0
KCL1 141822Z 22005KT 38/12 A3001 RMK A01 T03820118  RH  021%=      5-min Rain = 0
KCL1 141823Z 22007KT 38/12 A3001 RMK A01 T03820121  RH  021%=      5-min Rain = 0
KCL1 141824Z 24007KT 38/12 A3001 RMK A01 T03840121  RH  021%=      5-min Rain = 0
KCL1 141825Z 22004KT 38/12 A3001 RMK A01 T03830117  RH  020%=      5-min Rain = 0
KCL1 141826Z 22002KT 38/12 A3001 RMK A01 T03810117  RH  021%=      5-min Rain = 0
KCL1 141827Z 13002KT 38/12 A3001 RMK A01 T03810116  RH  021%=      5-min Rain = 0
KCL1 141828Z 14001KT 38/12 A3001 RMK A01 T03800117  RH  021%=      5-min Rain = 0
KCL1 141829Z 15002KT 38/12 A3001 RMK A01 T03800118  RH  021%=      5-min Rain = 0
KCL1 141830Z 20005KT 38/12 A3001 RMK A01 T03840122  RH  021%=      5-min Rain = 0
KCL1 141831Z 22006KT 39/11 A3001 RMK A01 T03870114  RH  020%=      5-min Rain = 0
KCL1 141832Z 21006KT 39/12 A3001 RMK A01 T03860115  RH  020%=      5-min Rain = 0
KCL1 141833Z 21006KT 38/12 A3001 RMK A01 T03840115  RH  020%=      5-min Rain = 0
KCL1 141834Z 22005KT 38/11 A30 RMK A01 T03830113  RH  020%=      5-min Rain = 0
KCL1 141835Z 22006KT 38/11 A30 RMK A01 T03830113  RH  020%=      5-min Rain = 0
KCL1 141836Z 19005KT 38/11 A30 RMK A01 T03830110  RH  019%=      5-min Rain = 0
KCL1 141837Z 21004KT 38/11 A30 RMK A01 T03830112  RH  020%=      5-min Rain = 0
KCL1 141838Z 24005KT 39/11 A30 RMK A01 T03850112  RH  019%=      5-min Rain = 0
KCL1 141839Z 23006KT 39/11 A30 RMK A01 T03870107  RH  019%=      5-min Rain = 0
KCL1 141840Z 22005KT 39/11 A30 RMK A01 T03910110  RH  019%=      5-min Rain = 0
KCL1 141841Z 22004KT 39/11 A30 RMK A01 T03930105  RH  018%=      5-min Rain = 0
KCL1 141842Z 24002KT 39/10 A30 RMK A01 T03910101  RH  018%=      5-min Rain = 0
KCL1 141843Z 23002KT 39/10 A30 RMK A01 T03890098  RH  017%=      5-min Rain = 0
KCL1 141844Z 19005KT 39/10 A30 RMK A01 T03880100  RH  018%=      5-min Rain = 0
KCL1 141845Z 20006KT 39/10 A30 RMK A01 T03890095  RH  017%=      5-min Rain = 0
KCL1 141846Z 20006KT 39/10 A30 RMK A01 T03890098  RH  017%=      5-min Rain = 0
KCL1 141847Z 18005KT 39/10 A30 RMK A01 T03880095  RH  017%=      5-min Rain = 0
KCL1 141848Z 17002KT 39/09 A30 RMK A01 T03870094  RH  017%=      5-min Rain = 0
KCL1 141849Z 12002KT 39/09 A30 RMK A01 T03860093  RH  017%=      5-min Rain = 0
KCL1 141850Z 11002KT 39/10 A30 RMK A01 T03870100  RH  018%=      5-min Rain = 0
KCL1 141851Z 08002KT 39/10 A30 RMK A01 T03870101  RH  018%=      5-min Rain = 0
KCL1 141852Z 03002KT 39/10 A30 RMK A01 T03870102  RH  018%=      5-min Rain = 0
KCL1 141853Z 05003KT 39/10 A30 RMK A01 T03870102  RH  018%=      5-min Rain = 0
KCL1 141854Z 06002KT 39/10 A30 RMK A01 T03900102  RH  018%=      5-min Rain = 0
KCL1 141855Z 10004KT 39/10 A30 RMK A01 T03910101  RH  018%=      5-min Rain = 0
KCL1 141856Z 13004KT 39/11 A30 RMK A01 T03920106  RH  018%=      5-min Rain = 0
KCL1 141857Z 16004KT 40/11 A30 RMK A01 T03950106  RH  018%=      5-min Rain = 0
KCL1 141858Z 14004KT 40/11 A30 RMK A01 T03960105  RH  018%=      5-min Rain = 0
KCL1 141859Z 11003KT 40/10 A30 RMK A01 T03960104  RH  017%=      5-min Rain = 0
KCL1 141900Z 09002KT 39/10 A30 RMK A01 T03940103  RH  018%=      5-min Rain = 0
KCL1 141901Z 07006KT 39/11 A30 RMK A01 T03930106  RH  018%=      5-min Rain = 0
KCL1 141902Z 06004KT 39/10 A2999 RMK A01 T03920104  RH  018%=      5-min Rain = 0
KCL1 141903Z 07003KT 39/11 A2999 RMK A01 T03890107  RH  018%=      5-min Rain = 0
KCL1 141904Z 04002KT 39/11 A2999 RMK A01 T03900105  RH  018%=      5-min Rain = 0
KCL1 141905Z 08001KT 39/10 A2999 RMK A01 T03890103  RH  018%=      5-min Rain = 0
KCL1 141906Z 10003KT 39/11 A2999 RMK A01 T03890105  RH  018%=      5-min Rain = 0
KCL1 141907Z 09003KT 39/11 A2999 RMK A01 T03910107  RH  018%=      5-min Rain = 0
KCL1 141908Z 07004KT 40/11 A2999 RMK A01 T03950106  RH  018%=      5-min Rain = 0
KCL1 141909Z 06005KT 39/10 A2999 RMK A01 T03940104  RH  018%=      5-min Rain = 0
KCL1 141910Z 06004KT 39/11 A2999 RMK A01 T03920105  RH  018%=      5-min Rain = 0
KCL1 141911Z 08006KT 39/11 A2999 RMK A01 T03920106  RH  018%=      5-min Rain = 0
KCL1 141912Z 09004KT 39/10 A2999 RMK A01 T03930104  RH  018%=      5-min Rain = 0
KCL1 141913Z 05005KT 39/11 A2999 RMK A01 T03930107  RH  018%=      5-min Rain = 0
KCL1 141914Z 00004KT 40/11 A2999 RMK A01 T03970107  RH  018%=      5-min Rain = 0
KCL1 141915Z 00004KT 40/11 A2999 RMK A01 T03990107  RH  017%=      5-min Rain = 0
KCL1 141916Z 02005KT 40/11 A2999 RMK A01 T04010107  RH  017%=      5-min Rain = 0
KCL1 141917Z 35005KT 40/11 A2999 RMK A01 T04010105  RH  017%=      5-min Rain = 0
KCL1 141918Z 03006KT 40/11 A2999 RMK A01 T03990105  RH  017%=      5-min Rain = 0
KCL1 141919Z 05006KT 40/11 A2999 RMK A01 T03990105  RH  017%=      5-min Rain = 0
KCL1 141920Z 06005KT 40/10 A2999 RMK A01 T03970103  RH  017%=      5-min Rain = 0
KCL1 141921Z 07005KT 39/10 A2999 RMK A01 T03930101  RH  017%=      5-min Rain = 0
KCL1 141922Z 06008KT 39/10 A2998 RMK A01 T03930103  RH  018%=      5-min Rain = 0
KCL1 141923Z 05008KT 39/10 A2998 RMK A01 T03920104  RH  018%=      5-min Rain = 0
KCL1 141924Z 04007KT 39/11 A2998 RMK A01 T03920106  RH  018%=      5-min Rain = 0
KCL1 141925Z 02005KT 40/11 A2998 RMK A01 T03960109  RH  018%=      5-min Rain = 0
KCL1 141926Z 03006KT 40/11 A2998 RMK A01 T04010108  RH  017%=      5-min Rain = 0
KCL1 141927Z 03006KT 40/10 A2998 RMK A01 T04010104  RH  017%=      5-min Rain = 0
KCL1 141928Z 02004KT 40/11 A2998 RMK A01 T03990105  RH  017%=      5-min Rain = 0
KCL1 141929Z 03005KT 40/10 A2998 RMK A01 T04010103  RH  017%=      5-min Rain = 0
KCL1 141930Z 02005KT 40/10 A2998 RMK A01 T04000101  RH  017%=      5-min Rain = 0
KCL1 141931Z 01006KT 40/10 A2998 RMK A01 T03990100  RH  017%=      5-min Rain = 0
KCL1 141932Z 34004KT 40/10 A2997 RMK A01 T03980098  RH  017%=      5-min Rain = 0
KCL1 141933Z 35004KT 40/10 A2997 RMK A01 T03950099  RH  017%=      5-min Rain = 0
KCL1 141934Z 35003KT 40/10 A2997 RMK A01 T03950099  RH  017%=      5-min Rain = 0
KCL1 141935Z 35003KT 40/10 A2997 RMK A01 T03960100  RH  017%=      5-min Rain = 0
KCL1 141936Z 03002KT 40/10 A2997 RMK A01 T03980099  RH  017%=      5-min Rain = 0
KCL1 141937Z 00002KT 40/10 A2997 RMK A01 T03980098  RH  017%=      5-min Rain = 0
KCL1 141938Z 03005KT 40/10 A2997 RMK A01 T03980098  RH  017%=      5-min Rain = 0
KCL1 141939Z 03005KT 40/10 A2997 RMK A01 T03970096  RH  016%=      5-min Rain = 0
KCL1 141940Z 03004KT 40/10 A2997 RMK A01 T03950096  RH  017%=      5-min Rain = 0
KCL1 141941Z 03003KT 39/10 A2997 RMK A01 T03930095  RH  017%=      5-min Rain = 0
KCL1 141942Z 04008KT 39/10 A2997 RMK A01 T03940099  RH  017%=      5-min Rain = 0
KCL1 141943Z 02007KT 40/10 A2997 RMK A01 T03980098  RH  017%=      5-min Rain = 0
KCL1 141944Z 36006KT 40/10 A2997 RMK A01 T04000100  RH  017%=      5-min Rain = 0
KCL1 141945Z 02010KT 40/10 A2997 RMK A01 T04030102  RH  017%=      5-min Rain = 0
KCL1 141946Z 02008G13KT 40/10 A2997 RMK A01 T04030098  RH  016%=      5-min Rain = 0
KCL1 141947Z 36005KT 40/10 A2997 RMK A01 T03990097  RH  016%=      5-min Rain = 0
KCL1 141948Z 34006KT 40/10 A2997 RMK A01 T03950098  RH  017%=      5-min Rain = 0
KCL1 141949Z 36006KT 39/10 A2997 RMK A01 T03930097  RH  017%=      5-min Rain = 0
KCL1 141950Z 01006KT 39/10 A2997 RMK A01 T03920099  RH  017%=      5-min Rain = 0
KCL1 141951Z 00003KT 39/10 A2997 RMK A01 T03930100  RH  017%=      5-min Rain = 0
KCL1 141952Z 03006KT 40/11 A2997 RMK A01 T03960110  RH  018%=      5-min Rain = 0
KCL1 141953Z 06009G14KT 40/13 A2997 RMK A01 T03990130  RH  020%=      5-min Rain = 0
KCL1 141954Z 09009KT 40/15 A2997 RMK A01 T04000151  RH  023%=      5-min Rain = 0
KCL1 141955Z 10013KT 40/15 A2997 RMK A01 T04000154  RH  024%=      5-min Rain = 0
KCL1 141956Z 10014KT 40/15 A2997 RMK A01 T03970153  RH  024%=      5-min Rain = 0
KCL1 141957Z 11012KT 39/15 A2997 RMK A01 T03920150  RH  024%=      5-min Rain = 0
KCL1 141958Z 10012KT 39/15 A2997 RMK A01 T03900151  RH  025%=      5-min Rain = 0
KCL1 141959Z 10010KT 39/15 A2997 RMK A01 T03920152  RH  024%=      5-min Rain = 0
KCL1 142000Z 12015KT 40/15 A2996 RMK A01 T03950151  RH  024%=      5-min Rain = 0
KCL1 142001Z 10015KT 39/15 A2996 RMK A01 T03930149  RH  024%=      5-min Rain = 0
KCL1 142002Z 09009KT 39/15 A2996 RMK A01 T03870145  RH  024%=      5-min Rain = 0
KCL1 142003Z 11015G20KT 38/15 A2996 RMK A01 T03820149  RH  025%=      5-min Rain = 0
KCL1 142004Z 11015G20KT 38/15 A2996 RMK A01 T03810149  RH  025%=      5-min Rain = 0
KCL1 142005Z 11016G22KT 38/15 A2996 RMK A01 T03800147  RH  025%=      5-min Rain = 0
KCL1 142006Z 09012KT 38/15 A2996 RMK A01 T03770145  RH  025%=      5-min Rain = 0
KCL1 142007Z 11012KT 38/15 A2996 RMK A01 T03750147  RH  026%=      5-min Rain = 0
KCL1 142008Z 11016KT 38/15 A2996 RMK A01 T03750148  RH  026%=      5-min Rain = 0
KCL1 142009Z 11015KT 37/15 A2996 RMK A01 T03740149  RH  026%=      5-min Rain = 0
KCL1 142010Z 10014KT 37/15 A2996 RMK A01 T03710148  RH  027%=      5-min Rain = 0
KCL1 142011Z 11013G18KT 37/15 A2996 RMK A01 T03690148  RH  027%=      5-min Rain = 0
KCL1 142012Z 14012KT 37/15 A2996 RMK A01 T03690149  RH  027%=      5-min Rain = 0
KCL1 142013Z 15019G25KT 37/14 A2996 RMK A01 T03700137  RH  025%=      5-min Rain = 0
KCL1 142014Z 15016KT 36/12 A2996 RMK A01 T03630122  RH  024%=      5-min Rain = 0
KCL1 142015Z 17016KT 36/12 A2996 RMK A01 T03550120  RH  024%=      5-min Rain = 0
KCL1 142016Z 17022KT 35/12 A2996 RMK A01 T03500119  RH  025%=      5-min Rain = 0
KCL1 142017Z 17018KT 35/12 A2996 RMK A01 T03470117  RH  025%=      5-min Rain = 0
KCL1 142018Z 18016KT 35/12 A2996 RMK A01 T03450117  RH  025%=      5-min Rain = 0
KCL1 142019Z 18012KT 34/12 A2997 RMK A01 T03440118  RH  025%=      5-min Rain = 0
KCL1 142020Z 18011KT 34/12 A2997 RMK A01 T03440118  RH  025%=      5-min Rain = 0
KCL1 142021Z 18013G19KT 35/12 A2997 RMK A01 T03450119  RH  025%=      5-min Rain = 0
KCL1 142022Z 17018G31KT 35/12 A2997 RMK A01 T03450122  RH  026%=      5-min Rain = 0
KCL1 142023Z 16022KT 34/13 A2997 RMK A01 T03430128  RH  027%=      5-min Rain = 0
KCL1 142024Z 17024G30KT 34/14 A2998 RMK A01 T03360136  RH  030%=      5-min Rain = 0
KCL1 142025Z 16021G31KT 32/14 A2998 RMK A01 T03210141  RH  034%=      5-min Rain = 0
KCL1 142026Z 17021G29KT 30/14 A2998 RMK A01 T03030140  RH  037%=      5-min Rain = 0.01
KCL1 142027Z 16019G24KT 29/14 A2998 RMK A01 T02930144  RH  040%=      5-min Rain = 0
KCL1 142028Z 16020G28KT 28/14 A2998 RMK A01 T02840144  RH  042%=      5-min Rain = 0.01
KCL1 142029Z 16023G30KT 28/14 A2998 RMK A01 T02780139  RH  042%=      5-min Rain = 0
KCL1 142030Z 17021G27KT 28/14 A2998 RMK A01 T02750139  RH  043%=      5-min Rain = 0
KCL1 142031Z 16015G23KT 27/14 A2998 RMK A01 T02730143  RH  045%=      5-min Rain = 0
KCL1 142032Z 15016G23KT 27/15 A2998 RMK A01 T02680147  RH  047%=      5-min Rain = 0
KCL1 142033Z 17017G24KT 27/15 A2998 RMK A01 T02670146  RH  047%=      5-min Rain = 0
KCL1 142034Z 16015G21KT 27/15 A2998 RMK A01 T02680148  RH  048%=      5-min Rain = 0
KCL1 142035Z 17014KT 27/15 A2998 RMK A01 T02700150  RH  048%=      5-min Rain = 0
KCL1 142036Z 17009KT 27/15 A2998 RMK A01 T02740148  RH  046%=      5-min Rain = 0
KCL1 142037Z 16012G18KT 28/15 A2998 RMK A01 T02760151  RH  046%=      5-min Rain = 0
KCL1 142038Z 16010KT 28/15 A2998 RMK A01 T02790145  RH  044%=      5-min Rain = 0
KCL1 142039Z 15012KT 28/15 A2998 RMK A01 T02820148  RH  044%=      5-min Rain = 0
KCL1 142040Z 13012KT 28/15 A2998 RMK A01 T02830149  RH  044%=      5-min Rain = 0
KCL1 142041Z 13015KT 28/15 A2999 RMK A01 T02810154  RH  046%=      5-min Rain = 0
KCL1 142042Z 12014KT 28/16 A2998 RMK A01 T02770161  RH  049%=      5-min Rain = 0
KCL1 142043Z 12017KT 27/17 A2999 RMK A01 T02720166  RH  052%=      5-min Rain = 0
KCL1 142044Z 11017KT 27/17 A2999 RMK A01 T02700169  RH  054%=      5-min Rain = 0
KCL1 142045Z 11016KT 27/17 A2999 RMK A01 T02690173  RH  056%=      5-min Rain = 0
KCL1 142046Z 11017KT 27/17 A2999 RMK A01 T02670169  RH  055%=      5-min Rain = 0
KCL1 142047Z 11015G22KT 27/17 A2999 RMK A01 T02660167  RH  055%=      5-min Rain = 0
KCL1 142048Z 10019G25KT 26/17 A2999 RMK A01 T02630167  RH  056%=      5-min Rain = 0.01
KCL1 142049Z 09024G32KT 26/16 A2999 RMK A01 T02590164  RH  056%=      5-min Rain = 0
KCL1 142050Z 08028G33KT 26/16 A2999 RMK A01 T02580158  RH  054%=      5-min Rain = 0
KCL1 142051Z 08025KT 26/16 A2999 RMK A01 T02580159  RH  054%=      5-min Rain = 0
KCL1 142052Z 09023KT 26/16 A2999 RMK A01 T02570164  RH  056%=      5-min Rain = 0
KCL1 142053Z 09020G25KT 26/16 A2999 RMK A01 T02560163  RH  056%=      5-min Rain = 0
KCL1 142054Z 07023G31KT 26/16 A2998 RMK A01 T02560163  RH  056%=      5-min Rain = 0
KCL1 142055Z 07024KT 26/16 A2999 RMK A01 T02590155  RH  053%=      5-min Rain = 0
KCL1 142056Z 08022KT 26/16 A2999 RMK A01 T02610155  RH  052%=      5-min Rain = 0
KCL1 142057Z 08019KT 26/16 A2999 RMK A01 T02600158  RH  053%=      5-min Rain = 0
KCL1 142058Z 08017KT 26/16 A2999 RMK A01 T02590161  RH  055%=      5-min Rain = 0
KCL1 142059Z 07015KT 26/16 A2999 RMK A01 T02570163  RH  056%=      5-min Rain = 0
KCL1 142100Z 06018G24KT 26/17 A2999 RMK A01 T02570165  RH  057%=      5-min Rain = 0
KCL1 142101Z 07020KT 26/17 A30 RMK A01 T02590166  RH  057%=      5-min Rain = 0
KCL1 142102Z 07021G27KT 26/16 A30 RMK A01 T02600164  RH  055%=      5-min Rain = 0
KCL1 142103Z 07021KT 26/16 A30 RMK A01 T02590161  RH  055%=      5-min Rain = 0
KCL1 142104Z 07018KT 26/16 A30 RMK A01 T02550161  RH  056%=      5-min Rain = 0
KCL1 142105Z 06019KT 25/16 A30 RMK A01 T02530164  RH  058%=      5-min Rain = 0
KCL1 142106Z 06018G24KT 25/17 A30 RMK A01 T02490165  RH  060%=      5-min Rain = 0
KCL1 142107Z 06019KT 24/17 A30 RMK A01 T02430167  RH  063%=      5-min Rain = 0
KCL1 142108Z 06020KT 24/17 A30 RMK A01 T02370165  RH  064%=      5-min Rain = 0
KCL1 142109Z 05017KT 23/16 A30 RMK A01 T02340163  RH  064%=      5-min Rain = 0
KCL1 142110Z 06017KT 23/16 A30 RMK A01 T02330162  RH  064%=      5-min Rain = 0
KCL1 142111Z 06015KT 23/16 A30 RMK A01 T02300163  RH  066%=      5-min Rain = 0.01
KCL1 142112Z 06016KT 22/17 A30 RMK A01 T02230169  RH  071%=      5-min Rain = 0.02
KCL1 142113Z 06017KT 22/17 A30 RMK A01 T02160168  RH  074%=      5-min Rain = 0
KCL1 142114Z 07017KT 21/17 A2999 RMK A01 T02140170  RH  076%=      5-min Rain = 0.01
KCL1 142115Z 07017KT 22/17 A2999 RMK A01 T02150173  RH  077%=      5-min Rain = 0.01
KCL1 142116Z 07017KT 21/17 A30 RMK A01 T02140173  RH  078%=      5-min Rain = 0
KCL1 142117Z 08014KT 21/17 A2999 RMK A01 T02130173  RH  078%=      5-min Rain = 0.01
KCL1 142118Z 09016KT 21/18 A2999 RMK A01 T02130175  RH  079%=      5-min Rain = 0.01
KCL1 142119Z 09018KT 21/17 A2999 RMK A01 T02140172  RH  076%=      5-min Rain = 0
KCL1 142120Z 09017KT 22/17 A2999 RMK A01 T02180174  RH  076%=      5-min Rain = 0
KCL1 142121Z 09017KT 22/18 A2999 RMK A01 T02190176  RH  077%=      5-min Rain = 0.01
KCL1 142122Z 10018KT 22/18 A2999 RMK A01 T02210178  RH  076%=      5-min Rain = 0.01
KCL1 142123Z 10019KT 22/18 A2999 RMK A01 T02230180  RH  077%=      5-min Rain = 0
KCL1 142124Z 10019G24KT 23/18 A2998 RMK A01 T02250178  RH  075%=      5-min Rain = 0
KCL1 142125Z 11019KT 23/17 A2998 RMK A01 T02320171  RH  069%=      5-min Rain = 0
KCL1 142126Z 11018KT 24/17 A2998 RMK A01 T02400174  RH  066%=      5-min Rain = 0
KCL1 142127Z 11018G23KT 24/17 A2998 RMK A01 T02410173  RH  065%=      5-min Rain = 0
KCL1 142128Z 11019KT 24/16 A2997 RMK A01 T02440164  RH  061%=      5-min Rain = 0.01
KCL1 142129Z 11019KT 25/16 A2997 RMK A01 T02450160  RH  059%=      5-min Rain = 0
KCL1 142130Z 11022KT 25/16 A2997 RMK A01 T02470159  RH  058%=      5-min Rain = 0
KCL1 142131Z 11019KT 25/16 A2997 RMK A01 T02500158  RH  057%=      5-min Rain = 0
KCL1 142132Z 11018KT 25/15 A2997 RMK A01 T02510153  RH  054%=      5-min Rain = 0
KCL1 142133Z 11017KT 25/15 A2997 RMK A01 T02520148  RH  053%=      5-min Rain = 0
KCL1 142134Z 11017KT 25/15 A2997 RMK A01 T02530149  RH  053%=      5-min Rain = 0
KCL1 142135Z 11017KT 25/15 A2997 RMK A01 T02540148  RH  052%=      5-min Rain = 0
KCL1 142136Z 11016KT 26/14 A2997 RMK A01 T02550144  RH  050%=      5-min Rain = 0
KCL1 142137Z 11014KT 26/14 A2997 RMK A01 T02560138  RH  048%=      5-min Rain = 0
KCL1 142138Z 11014KT 26/14 A2998 RMK A01 T02570140  RH  048%=      5-min Rain = 0
KCL1 142139Z 12013KT 26/14 A2998 RMK A01 T02580141  RH  048%=      5-min Rain = 0
KCL1 142140Z 12012KT 26/14 A2998 RMK A01 T02580142  RH  049%=      5-min Rain = 0
KCL1 142141Z 12011KT 26/15 A2998 RMK A01 T02590146  RH  050%=      5-min Rain = 0
KCL1 142142Z 12011KT 26/15 A2998 RMK A01 T02580152  RH  052%=      5-min Rain = 0
KCL1 142143Z 13012KT 26/16 A2998 RMK A01 T02580156  RH  053%=      5-min Rain = 0
KCL1 142144Z 13011KT 26/16 A2998 RMK A01 T02580159  RH  054%=      5-min Rain = 0
KCL1 142145Z 13010KT 26/16 A2998 RMK A01 T02590163  RH  055%=      5-min Rain = 0
KCL1 142146Z 15010KT 26/16 A2999 RMK A01 T02590163  RH  055%=      5-min Rain = 0
KCL1 142147Z 18010KT 26/17 A2999 RMK A01 T02590170  RH  058%=      5-min Rain = 0
KCL1 142148Z 18010KT 26/17 A2999 RMK A01 T02570167  RH  058%=      5-min Rain = 0
KCL1 142149Z 19011KT 26/16 A2999 RMK A01 T02590159  RH  054%=      5-min Rain = 0
KCL1 142150Z 20010KT 26/16 A2999 RMK A01 T02640163  RH  054%=      5-min Rain = 0
KCL1 142151Z 20009KT 27/17 A2999 RMK A01 T02670166  RH  054%=      5-min Rain = 0
KCL1 142152Z 19009KT 27/17 A2999 RMK A01 T02680167  RH  054%=      5-min Rain = 0
KCL1 142153Z 18007KT 27/17 A2999 RMK A01 T02690170  RH  055%=      5-min Rain = 0
KCL1 142154Z 17007KT 27/17 A2999 RMK A01 T02700174  RH  056%=      5-min Rain = 0
KCL1 142155Z 16007KT 27/18 A2999 RMK A01 T02690176  RH  057%=      5-min Rain = 0.01
KCL1 142156Z 14007KT 27/18 A2999 RMK A01 T02670177  RH  058%=      5-min Rain = 0
KCL1 142157Z 13009KT 27/18 A2998 RMK A01 T02650177  RH  058%=      5-min Rain = 0
KCL1 142158Z 13009KT 26/17 A2998 RMK A01 T02640171  RH  056%=      5-min Rain = 0
KCL1 142159Z 13009KT 27/17 A2998 RMK A01 T02650171  RH  056%=      5-min Rain = 0
KCL1 142200Z 14009KT 27/17 A2998 RMK A01 T02660173  RH  057%=      5-min Rain = 0
KCL1 142201Z 14009KT 27/17 A2998 RMK A01 T02660174  RH  057%=      5-min Rain = 0
KCL1 142202Z 13012KT 27/17 A2998 RMK A01 T02650169  RH  056%=      5-min Rain = 0
KCL1 142203Z 13012KT 27/17 A2998 RMK A01 T02660165  RH  054%=      5-min Rain = 0
KCL1 142204Z 14011KT 27/17 A2998 RMK A01 T02690166  RH  053%=      5-min Rain = 0
KCL1 142205Z 15011KT 27/16 A2998 RMK A01 T02700164  RH  052%=      5-min Rain = 0
KCL1 142206Z 14009KT 27/17 A2998 RMK A01 T02720165  RH  052%=      5-min Rain = 0
KCL1 142207Z 14008KT 27/16 A2998 RMK A01 T02720163  RH  051%=      5-min Rain = 0
KCL1 142208Z 14009KT 27/16 A2998 RMK A01 T02720160  RH  050%=      5-min Rain = 0
KCL1 142209Z 14010KT 27/16 A2998 RMK A01 T02720156  RH  049%=      5-min Rain = 0
KCL1 142210Z 14009KT 27/15 A2998 RMK A01 T02730154  RH  048%=      5-min Rain = 0
KCL1 142211Z 14008KT 27/15 A2998 RMK A01 T02740152  RH  047%=      5-min Rain = 0
KCL1 142212Z 13007KT 28/15 A2998 RMK A01 T02750152  RH  047%=      5-min Rain = 0
KCL1 142213Z 13006KT 28/16 A2999 RMK A01 T02760155  RH  048%=      5-min Rain = 0
KCL1 142214Z 13007KT 28/16 A2999 RMK A01 T02760157  RH  048%=      5-min Rain = 0
KCL1 142215Z 14006KT 28/16 A2999 RMK A01 T02750158  RH  049%=      5-min Rain = 0
KCL1 142216Z 13006KT 27/16 A2999 RMK A01 T02740160  RH  050%=      5-min Rain = 0
KCL1 142217Z 13005KT 27/16 A2999 RMK A01 T02730162  RH  051%=      5-min Rain = 0
KCL1 142218Z 13006KT 27/16 A2999 RMK A01 T02720163  RH  051%=      5-min Rain = 0
KCL1 142219Z 14006KT 27/16 A2999 RMK A01 T02710163  RH  052%=      5-min Rain = 0
KCL1 142220Z 15006KT 27/16 A2999 RMK A01 T02700163  RH  052%=      5-min Rain = 0
KCL1 142221Z 14005G10KT 27/16 A2999 RMK A01 T02700160  RH  051%=      5-min Rain = 0
KCL1 142222Z 13007KT 27/15 A2999 RMK A01 T02700154  RH  049%=      5-min Rain = 0
KCL1 142223Z 12008KT 27/15 A2999 RMK A01 T02720153  RH  048%=      5-min Rain = 0
KCL1 142224Z 12008KT 27/16 A2999 RMK A01 T02730156  RH  048%=      5-min Rain = 0
KCL1 142225Z 11008KT 27/16 A2999 RMK A01 T02740158  RH  049%=      5-min Rain = 0
KCL1 142226Z 11010KT 27/16 A2999 RMK A01 T02730160  RH  050%=      5-min Rain = 0
KCL1 142227Z 11010KT 27/16 A2999 RMK A01 T02710161  RH  051%=      5-min Rain = 0
KCL1 142228Z 11011KT 27/16 A2999 RMK A01 T02680162  RH  052%=      5-min Rain = 0
KCL1 142229Z 11012KT 27/16 A2999 RMK A01 T02670162  RH  053%=      5-min Rain = 0
KCL1 142230Z 10010KT 27/16 A2999 RMK A01 T02660163  RH  053%=      5-min Rain = 0
KCL1 142231Z 09010KT 27/17 A2999 RMK A01 T02650165  RH  054%=      5-min Rain = 0
KCL1 142232Z 09011KT 26/17 A2999 RMK A01 T02640169  RH  056%=      5-min Rain = 0
KCL1 142233Z 09013KT 26/17 A2999 RMK A01 T02620172  RH  058%=      5-min Rain = 0
KCL1 142234Z 08014KT 26/18 A2999 RMK A01 T02590175  RH  060%=      5-min Rain = 0
KCL1 142235Z 08014KT 26/18 A2999 RMK A01 T02580177  RH  061%=      5-min Rain = 0
KCL1 142236Z 08016KT 26/18 A2999 RMK A01 T02570179  RH  062%=      5-min Rain = 0
KCL1 142237Z 09015KT 26/18 A2998 RMK A01 T02570179  RH  062%=      5-min Rain = 0
KCL1 142238Z 09015KT 26/18 A2998 RMK A01 T02580176  RH  060%=      5-min Rain = 0
KCL1 142239Z 09017KT 26/18 A2998 RMK A01 T02590176  RH  060%=      5-min Rain = 0
KCL1 142240Z 09016KT 26/18 A2998 RMK A01 T02600178  RH  060%=      5-min Rain = 0
KCL1 142241Z 10015KT 26/18 A2998 RMK A01 T02600176  RH  060%=      5-min Rain = 0
KCL1 142242Z 11014KT 26/18 A2998 RMK A01 T02600175  RH  059%=      5-min Rain = 0
KCL1 142243Z 11012KT 26/17 A2998 RMK A01 T02610174  RH  059%=      5-min Rain = 0
KCL1 142244Z 12012KT 26/17 A2998 RMK A01 T02610174  RH  059%=      5-min Rain = 0
KCL1 142245Z 12012KT 26/18 A2998 RMK A01 T02610177  RH  060%=      5-min Rain = 0
KCL1 142246Z 12014KT 26/18 A2998 RMK A01 T02600176  RH  060%=      5-min Rain = 0
KCL1 142247Z 12014KT 26/17 A2998 RMK A01 T02600171  RH  058%=      5-min Rain = 0
KCL1 142248Z 13014KT 26/16 A2999 RMK A01 T02600162  RH  055%=      5-min Rain = 0
KCL1 142249Z 13013KT 26/16 A2999 RMK A01 T02620159  RH  053%=      5-min Rain = 0
KCL1 142250Z 13014KT 26/16 A2999 RMK A01 T02640156  RH  052%=      5-min Rain = 0
KCL1 142251Z 14013KT 27/16 A2999 RMK A01 T02650155  RH  051%=      5-min Rain = 0
KCL1 142252Z 14012KT 27/16 A2999 RMK A01 T02650155  RH  051%=      5-min Rain = 0
KCL1 142253Z 14014KT 27/15 A2999 RMK A01 T02650153  RH  050%=      5-min Rain = 0
KCL1 142254Z 15012KT 27/15 A30 RMK A01 T02660153  RH  050%=      5-min Rain = 0
KCL1 142255Z 16012KT 27/16 A30 RMK A01 T02670156  RH  051%=      5-min Rain = 0
KCL1 142256Z 17012KT 27/15 A30 RMK A01 T02670153  RH  050%=      5-min Rain = 0
KCL1 142257Z 17010KT 27/15 A30 RMK A01 T02670148  RH  048%=      5-min Rain = 0
KCL1 142258Z 16011KT 27/15 A2999 RMK A01 T02690148  RH  048%=      5-min Rain = 0
KCL1 142259Z 17011KT 27/14 A2999 RMK A01 T02700142  RH  045%=      5-min Rain = 0
KCL1 142300Z 16013KT 27/14 A2999 RMK A01 T02720139  RH  044%=      5-min Rain = 0
KCL1 142301Z 16011KT 27/14 A2999 RMK A01 T02740141  RH  044%=      5-min Rain = 0
KCL1 142302Z 16011KT 28/14 A2999 RMK A01 T02750144  RH  045%=      5-min Rain = 0
KCL1 142303Z 16009KT 27/15 A2999 RMK A01 T02740146  RH  046%=      5-min Rain = 0
KCL1 142304Z 15011KT 27/15 A2999 RMK A01 T02720148  RH  047%=      5-min Rain = 0
KCL1 142305Z 15008KT 27/15 A2999 RMK A01 T02700151  RH  048%=      5-min Rain = 0
KCL1 142306Z 15011KT 27/15 A2999 RMK A01 T02660154  RH  050%=      5-min Rain = 0
KCL1 142307Z 15011KT 26/15 A2999 RMK A01 T02620149  RH  050%=      5-min Rain = 0
KCL1 142308Z 16011KT 26/15 A2999 RMK A01 T02590152  RH  052%=      5-min Rain = 0
KCL1 142309Z 16012KT 26/15 A2999 RMK A01 T02560148  RH  051%=      5-min Rain = 0.01
KCL1 142310Z 15011KT 25/15 A2999 RMK A01 T02540151  RH  053%=      5-min Rain = 0
KCL1 142311Z 15016KT 25/14 A2999 RMK A01 T02540138  RH  049%=      5-min Rain = 0
KCL1 142312Z 15013KT 26/14 A2999 RMK A01 T02580135  RH  046%=      5-min Rain = 0
KCL1 142313Z 15012G17KT 26/14 A2999 RMK A01 T02610139  RH  047%=      5-min Rain = 0
KCL1 142314Z 15012KT 26/14 A2999 RMK A01 T02620136  RH  046%=      5-min Rain = 0
KCL1 142315Z 16009KT 26/14 A2999 RMK A01 T02620138  RH  046%=      5-min Rain = 0
KCL1 142316Z 16009KT 26/14 A2998 RMK A01 T02610139  RH  047%=      5-min Rain = 0
KCL1 142317Z 15010KT 26/13 A2998 RMK A01 T02610134  RH  045%=      5-min Rain = 0
KCL1 142318Z 15010KT 26/14 A2998 RMK A01 T02630135  RH  045%=      5-min Rain = 0
KCL1 142319Z 14011KT 26/13 A2998 RMK A01 T02640128  RH  043%=      5-min Rain = 0
KCL1 142320Z 14011KT 27/13 A2998 RMK A01 T02660128  RH  042%=      5-min Rain = 0
KCL1 142321Z 14013KT 27/12 A2998 RMK A01 T02680123  RH  040%=      5-min Rain = 0
KCL1 142322Z 13012KT 27/13 A2998 RMK A01 T02720126  RH  040%=      5-min Rain = 0
KCL1 142323Z 13013KT 27/13 A2998 RMK A01 T02730126  RH  040%=      5-min Rain = 0
KCL1 142324Z 13013KT 27/13 A2998 RMK A01 T02730130  RH  041%=      5-min Rain = 0
KCL1 142325Z 13011KT 27/13 A2998 RMK A01 T02720128  RH  041%=      5-min Rain = 0
KCL1 142326Z 13010KT 27/13 A2998 RMK A01 T02720131  RH  042%=      5-min Rain = 0
KCL1 142327Z 14009KT 27/13 A2998 RMK A01 T02710131  RH  042%=      5-min Rain = 0
KCL1 142328Z 16009KT 27/13 A2998 RMK A01 T02700132  RH  042%=      5-min Rain = 0
KCL1 142329Z 17008KT 27/13 A2997 RMK A01 T02690133  RH  043%=      5-min Rain = 0
KCL1 142330Z 16009KT 27/13 A2997 RMK A01 T02690134  RH  044%=      5-min Rain = 0
KCL1 142331Z 16008KT 27/14 A2997 RMK A01 T02680136  RH  044%=      5-min Rain = 0
KCL1 142332Z 16008KT 27/13 A2997 RMK A01 T02670133  RH  044%=      5-min Rain = 0
KCL1 142333Z 16003KT 27/13 A2996 RMK A01 T02670130  RH  043%=      5-min Rain = 0
KCL1 142334Z 19003KT 27/13 A2996 RMK A01 T02680133  RH  043%=      5-min Rain = 0
KCL1 142335Z 17003G8KT 27/13 A2996 RMK A01 T02680131  RH  043%=      5-min Rain = 0
KCL1 142336Z 15009KT 27/13 A2996 RMK A01 T02690128  RH  042%=      5-min Rain = 0
KCL1 142337Z 13010KT 27/12 A2996 RMK A01 T02720121  RH  039%=      5-min Rain = 0
KCL1 142338Z 13008KT 28/12 A2996 RMK A01 T02760119  RH  038%=      5-min Rain = 0
KCL1 142339Z 11007KT 28/12 A2996 RMK A01 T02810119  RH  037%=      5-min Rain = 0
KCL1 142340Z 12009KT 28/12 A2996 RMK A01 T02830121  RH  037%=      5-min Rain = 0
KCL1 142341Z 14006KT 28/12 A2996 RMK A01 T02830123  RH  037%=      5-min Rain = 0
KCL1 142342Z 18007KT 28/12 A2996 RMK A01 T02830119  RH  036%=      5-min Rain = 0
KCL1 142343Z 17006KT 28/12 A2996 RMK A01 T02840122  RH  037%=      5-min Rain = 0
KCL1 142344Z 16004KT 28/13 A2996 RMK A01 T02840129  RH  038%=      5-min Rain = 0
KCL1 142345Z 19005KT 28/13 A2996 RMK A01 T02820127  RH  039%=      5-min Rain = 0
KCL1 142346Z 21007KT 28/13 A2996 RMK A01 T02800134  RH  041%=      5-min Rain = 0
KCL1 142347Z 21004KT 28/13 A2997 RMK A01 T02770134  RH  042%=      5-min Rain = 0
KCL1 142348Z 13003KT 28/14 A2996 RMK A01 T02750135  RH  042%=      5-min Rain = 0
KCL1 142349Z 08006KT 27/14 A2996 RMK A01 T02730138  RH  043%=      5-min Rain = 0
KCL1 142350Z 10008G13KT 27/13 A2996 RMK A01 T02710134  RH  043%=      5-min Rain = 0
KCL1 142351Z 09012KT 27/13 A2996 RMK A01 T02720131  RH  042%=      5-min Rain = 0
KCL1 142352Z 11009KT 27/13 A2996 RMK A01 T02730129  RH  041%=      5-min Rain = 0
KCL1 142353Z 12008KT 28/13 A2996 RMK A01 T02750125  RH  039%=      5-min Rain = 0
KCL1 142354Z 11008KT 28/13 A2996 RMK A01 T02760128  RH  040%=      5-min Rain = 0
KCL1 142355Z 12007KT 28/13 A2996 RMK A01 T02770129  RH  040%=      5-min Rain = 0
KCL1 142356Z 12008KT 28/13 A2996 RMK A01 T02760133  RH  041%=      5-min Rain = 0
KCL1 142357Z 13008KT 28/13 A2996 RMK A01 T02750132  RH  041%=      5-min Rain = 0
KCL1 142358Z 13007KT 27/13 A2996 RMK A01 T02740129  RH  041%=      5-min Rain = 0
KCL1 142359Z 13008KT 28/13 A2996 RMK A01 T02750128  RH  040%=      5-min Rain = 0
KCL1 150000Z 13008KT 27/13 A2996 RMK A01 T02740127  RH  040%=      5-min Rain = 0
KCL1 150001Z 14007KT 28/12 A2996 RMK A01 T02750124  RH  039%=      5-min Rain = 0
KCL1 150002Z 15007KT 28/13 A2996 RMK A01 T02760125  RH  039%=      5-min Rain = 0
KCL1 150003Z 16006KT 28/13 A2996 RMK A01 T02760128  RH  040%=      5-min Rain = 0
KCL1 150004Z 16007KT 28/13 A2996 RMK A01 T02770128  RH  040%=      5-min Rain = 0
KCL1 150005Z 16006KT 28/13 A2996 RMK A01 T02760129  RH  040%=      5-min Rain = 0
KCL1 150006Z 15007KT 28/13 A2996 RMK A01 T02760128  RH  040%=      5-min Rain = 0
KCL1 150007Z 15007KT 28/12 A2996 RMK A01 T02770120  RH  038%=      5-min Rain = 0
KCL1 150008Z 15006KT 28/12 A2996 RMK A01 T02790120  RH  037%=      5-min Rain = 0
KCL1 150009Z 15006KT 28/12 A2996 RMK A01 T02810123  RH  038%=      5-min Rain = 0
KCL1 150010Z 16006KT 28/13 A2997 RMK A01 T02810125  RH  038%=      5-min Rain = 0
KCL1 150011Z 19006KT 28/13 A2997 RMK A01 T02810127  RH  039%=      5-min Rain = 0
KCL1 150012Z 20008KT 28/13 A2997 RMK A01 T02810126  RH  038%=      5-min Rain = 0
KCL1 150013Z 21008KT 28/13 A2997 RMK A01 T02820130  RH  039%=      5-min Rain = 0
KCL1 150014Z 18007KT 28/13 A2997 RMK A01 T02800132  RH  040%=      5-min Rain = 0
KCL1 150015Z 18008KT 28/13 A2997 RMK A01 T02800130  RH  040%=      5-min Rain = 0
KCL1 150016Z 17008KT 28/12 A2997 RMK A01 T02800122  RH  038%=      5-min Rain = 0
KCL1 150017Z 16008KT 28/12 A2997 RMK A01 T02820121  RH  037%=      5-min Rain = 0
KCL1 150018Z 18006KT 28/12 A2997 RMK A01 T02840124  RH  037%=      5-min Rain = 0
KCL1 150019Z 22006KT 29/13 A2997 RMK A01 T02850132  RH  039%=      5-min Rain = 0
KCL1 150020Z 24007KT 28/14 A2997 RMK A01 T02810138  RH  041%=      5-min Rain = 0
KCL1 150021Z 23006KT 28/14 A2997 RMK A01 T02770140  RH  043%=      5-min Rain = 0
KCL1 150022Z 23006KT 27/14 A2997 RMK A01 T02720141  RH  044%=      5-min Rain = 0
KCL1 150023Z 23007KT 27/14 A2997 RMK A01 T02690141  RH  045%=      5-min Rain = 0
KCL1 150024Z 23006KT 27/14 A2997 RMK A01 T02660140  RH  046%=      5-min Rain = 0
KCL1 150025Z 22007KT 27/14 A2997 RMK A01 T02650143  RH  047%=      5-min Rain = 0
KCL1 150026Z 21008KT 26/14 A2997 RMK A01 T02630144  RH  048%=      5-min Rain = 0
KCL1 150027Z 22008KT 26/15 A2997 RMK A01 T02610145  RH  049%=      5-min Rain = 0
KCL1 150028Z 22009KT 26/14 A2997 RMK A01 T02600142  RH  048%=      5-min Rain = 0
KCL1 150029Z 21008KT 26/14 A2997 RMK A01 T02600140  RH  048%=      5-min Rain = 0
KCL1 150030Z 20009KT 26/14 A2997 RMK A01 T02600140  RH  048%=      5-min Rain = 0
KCL1 150031Z 20008KT 26/14 A2997 RMK A01 T02600139  RH  047%=      5-min Rain = 0
KCL1 150032Z 19007KT 26/14 A2997 RMK A01 T02600140  RH  048%=      5-min Rain = 0
KCL1 150033Z 19007KT 26/14 A2997 RMK A01 T02610141  RH  047%=      5-min Rain = 0
KCL1 150034Z 18007KT 26/14 A2997 RMK A01 T02610140  RH  047%=      5-min Rain = 0
KCL1 150035Z 17006KT 26/14 A2997 RMK A01 T02610138  RH  047%=      5-min Rain = 0
KCL1 150036Z 17008KT 26/14 A2997 RMK A01 T02620139  RH  047%=      5-min Rain = 0
KCL1 150037Z 16009KT 26/14 A2997 RMK A01 T02630136  RH  046%=      5-min Rain = 0
KCL1 150038Z 16008KT 26/14 A2997 RMK A01 T02640135  RH  045%=      5-min Rain = 0
KCL1 150039Z 16008KT 26/14 A2997 RMK A01 T02640138  RH  046%=      5-min Rain = 0
KCL1 150040Z 16009KT 26/14 A2997 RMK A01 T02630137  RH  046%=      5-min Rain = 0
KCL1 150041Z 16009KT 26/14 A2997 RMK A01 T02630135  RH  045%=      5-min Rain = 0
KCL1 150042Z 15009KT 26/13 A2997 RMK A01 T02630133  RH  044%=      5-min Rain = 0
KCL1 150043Z 15008KT 26/13 A2997 RMK A01 T02640133  RH  044%=      5-min Rain = 0
KCL1 150044Z 15009KT 27/13 A2997 RMK A01 T02650131  RH  043%=      5-min Rain = 0
KCL1 150045Z 15008KT 27/13 A2997 RMK A01 T02650132  RH  044%=      5-min Rain = 0
KCL1 150046Z 14009KT 27/13 A2997 RMK A01 T02660132  RH  044%=      5-min Rain = 0
KCL1 150047Z 14009KT 27/13 A2997 RMK A01 T02660134  RH  044%=      5-min Rain = 0
KCL1 150048Z 13009KT 27/13 A2997 RMK A01 T02660134  RH  044%=      5-min Rain = 0
KCL1 150049Z 13010KT 27/13 A2997 RMK A01 T02650134  RH  044%=      5-min Rain = 0
KCL1 150050Z 13009KT 27/13 A2997 RMK A01 T02650133  RH  044%=      5-min Rain = 0
KCL1 150051Z 13009KT 27/13 A2997 RMK A01 T02650134  RH  044%=      5-min Rain = 0
KCL1 150052Z 13009KT 27/14 A2997 RMK A01 T02650135  RH  044%=      5-min Rain = 0
KCL1 150053Z 13009KT 27/14 A2997 RMK A01 T02650135  RH  044%=      5-min Rain = 0
KCL1 150054Z 14010KT 27/13 A2997 RMK A01 T02650133  RH  044%=      5-min Rain = 0
KCL1 150055Z 15011KT 27/13 A2997 RMK A01 T02660130  RH  043%=      5-min Rain = 0
KCL1 150056Z 15012KT 27/13 A2997 RMK A01 T02670127  RH  042%=      5-min Rain = 0
KCL1 150057Z 16011KT 27/12 A2997 RMK A01 T02710123  RH  040%=      5-min Rain = 0
KCL1 150058Z 17009KT 27/12 A2997 RMK A01 T02740124  RH  039%=      5-min Rain = 0
KCL1 150059Z 17010KT 28/13 A2997 RMK A01 T02760127  RH  040%=      5-min Rain = 0
KCL1 150100Z 17009KT 28/13 A2997 RMK A01 T02770126  RH  039%=      5-min Rain = 0
KCL1 150101Z 18008KT 28/13 A2997 RMK A01 T02780128  RH  040%=      5-min Rain = 0
KCL1 150102Z 19008KT 28/13 A2998 RMK A01 T02780128  RH  040%=      5-min Rain = 0
KCL1 150103Z 21007KT 28/13 A2998 RMK A01 T02770130  RH  040%=      5-min Rain = 0
KCL1 150104Z 22007KT 28/14 A2998 RMK A01 T02750135  RH  042%=      5-min Rain = 0
KCL1 150105Z 23008KT 27/14 A2999 RMK A01 T02720138  RH  044%=      5-min Rain = 0
KCL1 150106Z 22008KT 27/14 A2999 RMK A01 T02690138  RH  045%=      5-min Rain = 0
KCL1 150107Z 22007KT 27/14 A2999 RMK A01 T02670138  RH  045%=      5-min Rain = 0
KCL1 150108Z 21006KT 27/14 A2999 RMK A01 T02660139  RH  046%=      5-min Rain = 0
KCL1 150109Z 21006KT 27/14 A2999 RMK A01 T02650141  RH  046%=      5-min Rain = 0
KCL1 150110Z 21006KT 26/14 A2999 RMK A01 T02640140  RH  046%=      5-min Rain = 0
KCL1 150111Z 19006KT 26/14 A2999 RMK A01 T02630141  RH  047%=      5-min Rain = 0
KCL1 150112Z 19005KT 26/14 A2999 RMK A01 T02620142  RH  047%=      5-min Rain = 0
KCL1 150113Z 18006KT 26/14 A2999 RMK A01 T02620141  RH  047%=      5-min Rain = 0
KCL1 150114Z 17005KT 26/14 A2999 RMK A01 T02610140  RH  047%=      5-min Rain = 0
KCL1 150115Z 17005KT 26/14 A2999 RMK A01 T02610137  RH  046%=      5-min Rain = 0
KCL1 150116Z 16007KT 26/13 A2999 RMK A01 T02620134  RH  045%=      5-min Rain = 0
KCL1 150117Z 16007KT 26/13 A2999 RMK A01 T02640132  RH  044%=      5-min Rain = 0
KCL1 150118Z 16007KT 27/13 A2999 RMK A01 T02660130  RH  043%=      5-min Rain = 0
KCL1 150119Z 16010KT 27/13 A2999 RMK A01 T02680128  RH  042%=      5-min Rain = 0
KCL1 150120Z 15009KT 27/13 A2999 RMK A01 T02700125  RH  041%=      5-min Rain = 0
KCL1 150121Z 16009KT 27/12 A2999 RMK A01 T02740123  RH  039%=      5-min Rain = 0
KCL1 150122Z 16009KT 28/12 A2999 RMK A01 T02780123  RH  038%=      5-min Rain = 0
KCL1 150123Z 17009KT 28/12 A2999 RMK A01 T02800123  RH  038%=      5-min Rain = 0
KCL1 150124Z 19008KT 28/13 A2999 RMK A01 T02810126  RH  039%=      5-min Rain = 0
KCL1 150125Z 20007KT 28/13 A2999 RMK A01 T02800131  RH  040%=      5-min Rain = 0
KCL1 150126Z 23004KT 28/13 A2999 RMK A01 T02780134  RH  041%=      5-min Rain = 0
KCL1 150127Z 21004KT 28/14 A2999 RMK A01 T02750136  RH  042%=      5-min Rain = 0
KCL1 150128Z 19004KT 27/14 A2999 RMK A01 T02730136  RH  043%=      5-min Rain = 0
KCL1 150129Z 19003KT 27/13 A2999 RMK A01 T02720133  RH  042%=      5-min Rain = 0
KCL1 150130Z 18004KT 27/13 A2999 RMK A01 T02710130  RH  042%=      5-min Rain = 0
KCL1 150131Z 19003KT 27/13 A2999 RMK A01 T02720131  RH  042%=      5-min Rain = 0
KCL1 150132Z 18005KT 27/13 A2999 RMK A01 T02720131  RH  042%=      5-min Rain = 0
KCL1 150133Z 18005KT 27/13 A2999 RMK A01 T02730129  RH  041%=      5-min Rain = 0
KCL1 150134Z 17005KT 27/13 A2999 RMK A01 T02730130  RH  041%=      5-min Rain = 0
KCL1 150135Z 16005KT 27/13 A2999 RMK A01 T02740128  RH  040%=      5-min Rain = 0
KCL1 150136Z 15005KT 28/13 A2999 RMK A01 T02750128  RH  040%=      5-min Rain = 0
KCL1 150137Z 15005KT 28/13 A2999 RMK A01 T02750126  RH  040%=      5-min Rain = 0
KCL1 150138Z 15005KT 28/13 A2999 RMK A01 T02760127  RH  040%=      5-min Rain = 0
KCL1 150139Z 15005KT 28/13 A2999 RMK A01 T02760126  RH  039%=      5-min Rain = 0
KCL1 150140Z 15006KT 28/13 A2999 RMK A01 T02760128  RH  040%=      5-min Rain = 0
KCL1 150141Z 15006KT 28/13 A30 RMK A01 T02760128  RH  040%=      5-min Rain = 0
KCL1 150142Z 15006KT 28/13 A30 RMK A01 T02760128  RH  040%=      5-min Rain = 0
KCL1 150143Z 16005KT 28/13 A30 RMK A01 T02760127  RH  040%=      5-min Rain = 0
KCL1 150144Z 16005KT 28/13 A30 RMK A01 T02760128  RH  040%=      5-min Rain = 0
KCL1 150145Z 16004KT 28/13 A30 RMK A01 T02770127  RH  039%=      5-min Rain = 0
KCL1 150146Z 16006KT 28/13 A30 RMK A01 T02770126  RH  039%=      5-min Rain = 0
KCL1 150147Z 16005KT 28/13 A30 RMK A01 T02780126  RH  039%=      5-min Rain = 0
KCL1 150148Z 15005KT 28/13 A30 RMK A01 T02790126  RH  039%=      5-min Rain = 0
KCL1 150149Z 16006KT 28/13 A30 RMK A01 T02800125  RH  038%=      5-min Rain = 0
KCL1 150150Z 16007KT 28/13 A30 RMK A01 T02800126  RH  038%=      5-min Rain = 0
KCL1 150151Z 16007KT 28/13 A30 RMK A01 T02800128  RH  039%=      5-min Rain = 0
KCL1 150152Z 16008KT 28/13 A2999 RMK A01 T02800128  RH  039%=      5-min Rain = 0
KCL1 150153Z 17008KT 28/13 A2999 RMK A01 T02800132  RH  040%=      5-min Rain = 0
KCL1 150154Z 17008KT 28/14 A2999 RMK A01 T02790140  RH  043%=      5-min Rain = 0.01
KCL1 150155Z 17009KT 27/15 A2999 RMK A01 T02730147  RH  046%=      5-min Rain = 0
KCL1 150156Z 17010KT 27/15 A2999 RMK A01 T02660150  RH  049%=      5-min Rain = 0.01
KCL1 150157Z 18009KT 26/15 A2999 RMK A01 T02600149  RH  051%=      5-min Rain = 0
KCL1 150158Z 17009KT 26/15 A2999 RMK A01 T02560150  RH  052%=      5-min Rain = 0
KCL1 150159Z 18010KT 25/15 A2999 RMK A01 T02540147  RH  051%=      5-min Rain = 0
KCL1 150200Z 17009KT 26/15 A2999 RMK A01 T02550145  RH  050%=      5-min Rain = 0
KCL1 150201Z 17008KT 26/15 A2999 RMK A01 T02570145  RH  050%=      5-min Rain = 0
KCL1 150202Z 16009KT 26/15 A2999 RMK A01 T02580145  RH  050%=      5-min Rain = 0
KCL1 150203Z 16008KT 26/15 A2999 RMK A01 T02580145  RH  050%=      5-min Rain = 0
KCL1 150204Z 16007KT 26/15 A2999 RMK A01 T02580147  RH  050%=      5-min Rain = 0
KCL1 150205Z 16007KT 26/15 A30 RMK A01 T02570145  RH  050%=      5-min Rain = 0
KCL1 150206Z 17005KT 26/15 A30 RMK A01 T02570146  RH  050%=      5-min Rain = 0
KCL1 150207Z 19004KT 26/15 A30 RMK A01 T02570149  RH  051%=      5-min Rain = 0
KCL1 150208Z 19004KT 26/14 A30 RMK A01 T02560143  RH  050%=      5-min Rain = 0
KCL1 150209Z 20002KT 26/14 A30 RMK A01 T02570138  RH  048%=      5-min Rain = 0
KCL1 150210Z 23002KT 26/14 A30 RMK A01 T02600138  RH  047%=      5-min Rain = 0
KCL1 150211Z 24002KT 26/15 A30 RMK A01 T02620145  RH  049%=      5-min Rain = 0
KCL1 150212Z 25005KT 26/15 A30 RMK A01 T02610151  RH  051%=      5-min Rain = 0
KCL1 150213Z 25006KT 26/16 A3001 RMK A01 T02580160  RH  055%=      5-min Rain = 0
KCL1 150214Z 25006KT 25/16 A3001 RMK A01 T02530158  RH  056%=      5-min Rain = 0
KCL1 150215Z 26006KT 25/16 A3001 RMK A01 T02490155  RH  056%=      5-min Rain = 0
KCL1 150216Z 26005KT 25/15 A3001 RMK A01 T02480150  RH  054%=      5-min Rain = 0
KCL1 150217Z 27004KT 25/14 A3001 RMK A01 T02480144  RH  052%=      5-min Rain = 0
KCL1 150218Z 28005KT 25/14 A3001 RMK A01 T02510142  RH  051%=      5-min Rain = 0
KCL1 150219Z 28005KT 25/14 A3001 RMK A01 T02540141  RH  050%=      5-min Rain = 0
KCL1 150220Z 27005KT 26/14 A3001 RMK A01 T02560142  RH  049%=      5-min Rain = 0
KCL1 150221Z 28006KT 26/14 A3002 RMK A01 T02570143  RH  049%=      5-min Rain = 0
KCL1 150222Z 27006KT 26/14 A3002 RMK A01 T02570144  RH  050%=      5-min Rain = 0
KCL1 150223Z 27006KT 26/14 A3002 RMK A01 T02570143  RH  049%=      5-min Rain = 0
KCL1 150224Z 27006KT 26/15 A3002 RMK A01 T02580145  RH  050%=      5-min Rain = 0
KCL1 150225Z 27007KT 26/15 A3002 RMK A01 T02580145  RH  050%=      5-min Rain = 0
KCL1 150226Z 27006KT 26/15 A3002 RMK A01 T02580145  RH  050%=      5-min Rain = 0
KCL1 150227Z 26006KT 26/15 A3002 RMK A01 T02590145  RH  050%=      5-min Rain = 0
KCL1 150228Z 25005KT 26/15 A3002 RMK A01 T02590145  RH  049%=      5-min Rain = 0
KCL1 150229Z 25007KT 26/14 A3002 RMK A01 T02600144  RH  049%=      5-min Rain = 0
KCL1 150230Z 25009KT 26/14 A3002 RMK A01 T02620141  RH  047%=      5-min Rain = 0
KCL1 150231Z 25008KT 27/14 A3002 RMK A01 T02650142  RH  047%=      5-min Rain = 0
KCL1 150232Z 25009KT 27/14 A3002 RMK A01 T02660143  RH  046%=      5-min Rain = 0
KCL1 150233Z 25010KT 27/14 A3002 RMK A01 T02680138  RH  045%=      5-min Rain = 0
KCL1 150234Z 24009KT 27/14 A3002 RMK A01 T02700140  RH  045%=      5-min Rain = 0
KCL1 150235Z 25008KT 27/14 A3002 RMK A01 T02710139  RH  044%=      5-min Rain = 0
KCL1 150236Z 25007KT 27/14 A3002 RMK A01 T02720139  RH  044%=      5-min Rain = 0
KCL1 150237Z 23006KT 27/15 A3002 RMK A01 T02710145  RH  046%=      5-min Rain = 0
KCL1 150238Z 22005KT 27/15 A3002 RMK A01 T02690147  RH  047%=      5-min Rain = 0
KCL1 150239Z 23007KT 27/15 A3003 RMK A01 T02670145  RH  047%=      5-min Rain = 0
KCL1 150240Z 22007KT 27/14 A3003 RMK A01 T02660140  RH  046%=      5-min Rain = 0
KCL1 150241Z 22009KT 27/14 A3003 RMK A01 T02680140  RH  045%=      5-min Rain = 0
KCL1 150242Z 22008KT 27/14 A3003 RMK A01 T02690142  RH  046%=      5-min Rain = 0
KCL1 150243Z 21007KT 27/14 A3003 RMK A01 T02690141  RH  045%=      5-min Rain = 0
KCL1 150244Z 22012G17KT 27/14 A3003 RMK A01 T02700138  RH  044%=      5-min Rain = 0
KCL1 150245Z 22009KT 27/14 A3003 RMK A01 T02720139  RH  044%=      5-min Rain = 0
KCL1 150246Z 21010G15KT 27/14 A3003 RMK A01 T02730138  RH  043%=      5-min Rain = 0
KCL1 150247Z 20011KT 27/14 A3003 RMK A01 T02740136  RH  043%=      5-min Rain = 0
KCL1 150248Z 20010KT 28/14 A3003 RMK A01 T02760135  RH  042%=      5-min Rain = 0
KCL1 150249Z 20009KT 28/14 A3003 RMK A01 T02770136  RH  042%=      5-min Rain = 0
KCL1 150250Z 17007KT 28/14 A3003 RMK A01 T02770138  RH  043%=      5-min Rain = 0
KCL1 150251Z 17006KT 28/15 A3003 RMK A01 T02750145  RH  045%=      5-min Rain = 0
KCL1 150252Z 16008KT 27/15 A3003 RMK A01 T02720146  RH  046%=      5-min Rain = 0
KCL1 150253Z 17008KT 27/15 A3003 RMK A01 T02690145  RH  047%=      5-min Rain = 0
KCL1 150254Z 16008KT 27/15 A3003 RMK A01 T02670145  RH  047%=      5-min Rain = 0
KCL1 150255Z 16011KT 27/14 A3003 RMK A01 T02660142  RH  046%=      5-min Rain = 0
KCL1 150256Z 16013G18KT 27/13 A3003 RMK A01 T02660132  RH  043%=      5-min Rain = 0
KCL1 150257Z 16017KT 27/13 A3004 RMK A01 T02700127  RH  041%=      5-min Rain = 0
KCL1 150258Z 13018KT 27/13 A3004 RMK A01 T02730133  RH  042%=      5-min Rain = 0
KCL1 150259Z 13013KT 27/14 A3004 RMK A01 T02710142  RH  045%=      5-min Rain = 0
KCL1 150300Z 12017KT 27/14 A3004 RMK A01 T02660143  RH  047%=      5-min Rain = 0
KCL1 150301Z 13014G19KT 26/14 A3004 RMK A01 T02630142  RH  047%=      5-min Rain = 0
KCL1 150302Z 14015KT 26/14 A3004 RMK A01 T02600140  RH  048%=      5-min Rain = 0
KCL1 150303Z 16011KT 26/13 A3004 RMK A01 T02590134  RH  046%=      5-min Rain = 0
KCL1 150304Z 18011KT 26/13 A3004 RMK A01 T02610133  RH  045%=      5-min Rain = 0
KCL1 150305Z 17013KT 26/13 A3004 RMK A01 T02630130  RH  044%=      5-min Rain = 0
KCL1 150306Z 18014KT 27/13 A3004 RMK A01 T02650128  RH  043%=      5-min Rain = 0
KCL1 150307Z 18011KT 27/13 A3004 RMK A01 T02670129  RH  042%=      5-min Rain = 0
KCL1 150308Z 21010KT 27/13 A3005 RMK A01 T02680130  RH  042%=      5-min Rain = 0
KCL1 150309Z 24007KT 27/13 A3005 RMK A01 T02680134  RH  044%=      5-min Rain = 0
KCL1 150310Z 24005KT 27/14 A3005 RMK A01 T02660135  RH  044%=      5-min Rain = 0
KCL1 150311Z 22008KT 26/13 A3005 RMK A01 T02640134  RH  045%=      5-min Rain = 0
KCL1 150312Z 21006KT 26/13 A3005 RMK A01 T02640130  RH  043%=      5-min Rain = 0
KCL1 150313Z 19007KT 27/13 A3005 RMK A01 T02650130  RH  043%=      5-min Rain = 0
KCL1 150314Z 19007KT 27/13 A3005 RMK A01 T02650131  RH  043%=      5-min Rain = 0
KCL1 150315Z 19006KT 27/13 A3004 RMK A01 T02650131  RH  043%=      5-min Rain = 0
KCL1 150316Z 18005KT 27/13 A3004 RMK A01 T02650130  RH  043%=      5-min Rain = 0
KCL1 150317Z 18005KT 27/13 A3004 RMK A01 T02650129  RH  043%=      5-min Rain = 0
KCL1 150318Z 16005KT 26/13 A3004 RMK A01 T02640130  RH  043%=      5-min Rain = 0
KCL1 150319Z 15006KT 26/13 A3004 RMK A01 T02630132  RH  044%=      5-min Rain = 0
KCL1 150320Z 14005KT 26/13 A3004 RMK A01 T02610132  RH  045%=      5-min Rain = 0
KCL1 150321Z 14006KT 26/13 A3004 RMK A01 T02600132  RH  045%=      5-min Rain = 0
KCL1 150322Z 14005KT 26/13 A3005 RMK A01 T02580130  RH  045%=      5-min Rain = 0
KCL1 150323Z 16005KT 26/13 A3005 RMK A01 T02570128  RH  045%=      5-min Rain = 0
KCL1 150324Z 15005KT 26/13 A3005 RMK A01 T02570130  RH  045%=      5-min Rain = 0
KCL1 150325Z 14005KT 26/13 A3005 RMK A01 T02570130  RH  045%=      5-min Rain = 0
KCL1 150326Z 13005KT 26/13 A3005 RMK A01 T02560128  RH  045%=      5-min Rain = 0
KCL1 150327Z 12006KT 26/13 A3005 RMK A01 T02560128  RH  045%=      5-min Rain = 0
KCL1 150328Z 13006KT 26/13 A3005 RMK A01 T02560127  RH  045%=      5-min Rain = 0
KCL1 150329Z 14005KT 26/13 A3005 RMK A01 T02560129  RH  045%=      5-min Rain = 0
KCL1 150330Z 14005KT 26/13 A3005 RMK A01 T02570126  RH  044%=      5-min Rain = 0
KCL1 150331Z 16005KT 26/13 A3005 RMK A01 T02570127  RH  044%=      5-min Rain = 0
KCL1 150332Z 17003KT 26/13 A3005 RMK A01 T02580128  RH  045%=      5-min Rain = 0
KCL1 150333Z 18004KT 26/13 A3005 RMK A01 T02570128  RH  044%=      5-min Rain = 0
KCL1 150334Z 19003KT 26/13 A3005 RMK A01 T02580127  RH  044%=      5-min Rain = 0
KCL1 150335Z 18004KT 26/12 A3005 RMK A01 T02580124  RH  043%=      5-min Rain = 0
KCL1 150336Z 20006KT 26/13 A3005 RMK A01 T02590126  RH  044%=      5-min Rain = 0
KCL1 150337Z 21004KT 26/13 A3005 RMK A01 T02600126  RH  044%=      5-min Rain = 0
KCL1 150338Z 20005KT 26/13 A3005 RMK A01 T02610127  RH  043%=      5-min Rain = 0
KCL1 150339Z 20004KT 26/12 A3005 RMK A01 T02620124  RH  042%=      5-min Rain = 0
KCL1 150340Z 20004KT 27/12 A3005 RMK A01 T02650123  RH  041%=      5-min Rain = 0
KCL1 150341Z 18004KT 27/12 A3005 RMK A01 T02670124  RH  041%=      5-min Rain = 0
KCL1 150342Z 17004KT 27/12 A3005 RMK A01 T02670124  RH  041%=      5-min Rain = 0
KCL1 150343Z 18003KT 27/13 A3005 RMK A01 T02670125  RH  041%=      5-min Rain = 0
KCL1 150344Z 20005KT 27/12 A3005 RMK A01 T02680122  RH  040%=      5-min Rain = 0
KCL1 150345Z 18004KT 27/12 A3005 RMK A01 T02690123  RH  040%=      5-min Rain = 0
KCL1 150346Z 22003KT 27/12 A3005 RMK A01 T02690123  RH  040%=      5-min Rain = 0
KCL1 150347Z 18003KT 27/12 A3005 RMK A01 T02690121  RH  040%=      5-min Rain = 0
KCL1 150348Z 21004KT 27/12 A3005 RMK A01 T02690123  RH  040%=      5-min Rain = 0
KCL1 150349Z 22003KT 27/13 A3005 RMK A01 T02700125  RH  041%=      5-min Rain = 0
KCL1 150350Z 27001KT 27/12 A3005 RMK A01 T02690123  RH  040%=      5-min Rain = 0
KCL1 150351Z 24004KT 27/12 A3006 RMK A01 T02690122  RH  040%=      5-min Rain = 0
KCL1 150352Z 29002KT 27/12 A3006 RMK A01 T02700119  RH  039%=      5-min Rain = 0
KCL1 150353Z 32002KT 27/12 A3006 RMK A01 T02710123  RH  040%=      5-min Rain = 0
KCL1 150354Z 28002KT 27/13 A3006 RMK A01 T02710125  RH  040%=      5-min Rain = 0
KCL1 150355Z 29002KT 27/12 A3006 RMK A01 T02700122  RH  040%=      5-min Rain = 0
KCL1 150356Z 34002KT 27/12 A3006 RMK A01 T02700122  RH  040%=      5-min Rain = 0
KCL1 150357Z 01002KT 27/12 A3006 RMK A01 T02690122  RH  040%=      5-min Rain = 0
KCL1 150358Z 01002KT 27/12 A3007 RMK A01 T02690124  RH  040%=      5-min Rain = 0
KCL1 150359Z 00003KT 27/13 A3007 RMK A01 T02690127  RH  041%=      5-min Rain = 0
KCL1 150400Z 01003KT 27/13 A3007 RMK A01 T02670128  RH  042%=      5-min Rain = 0
KCL1 150401Z 01004KT 27/13 A3007 RMK A01 T02660126  RH  042%=      5-min Rain = 0
KCL1 150402Z 02004KT 27/13 A3007 RMK A01 T02660126  RH  042%=      5-min Rain = 0
KCL1 150403Z 02006KT 27/13 A3007 RMK A01 T02660131  RH  043%=      5-min Rain = 0
KCL1 150404Z 02007KT 26/14 A3007 RMK A01 T02620135  RH  045%=      5-min Rain = 0
KCL1 150405Z 02008KT 26/14 A3008 RMK A01 T02580142  RH  049%=      5-min Rain = 0
KCL1 150406Z 01009KT 25/15 A3008 RMK A01 T02520147  RH  052%=      5-min Rain = 0
KCL1 150407Z 01010KT 25/15 A3008 RMK A01 T02480146  RH  053%=      5-min Rain = 0
KCL1 150408Z 01011KT 25/15 A3008 RMK A01 T02450148  RH  054%=      5-min Rain = 0
KCL1 150409Z 01010KT 24/15 A3008 RMK A01 T02440148  RH  055%=      5-min Rain = 0
KCL1 150410Z 01010KT 24/15 A3009 RMK A01 T02430149  RH  056%=      5-min Rain = 0
KCL1 150411Z 01011KT 24/15 A3009 RMK A01 T02410152  RH  057%=      5-min Rain = 0
KCL1 150412Z 01011KT 24/15 A3009 RMK A01 T02400152  RH  058%=      5-min Rain = 0
KCL1 150413Z 01011KT 24/15 A3009 RMK A01 T02390152  RH  058%=      5-min Rain = 0
KCL1 150414Z 01011KT 24/15 A3009 RMK A01 T02390152  RH  058%=      5-min Rain = 0
KCL1 150415Z 36010KT 24/15 A3008 RMK A01 T02390150  RH  058%=      5-min Rain = 0
KCL1 150416Z 34008KT 24/15 A3008 RMK A01 T02390151  RH  058%=      5-min Rain = 0
KCL1 150417Z 32007KT 24/15 A3008 RMK A01 T02390149  RH  057%=      5-min Rain = 0
KCL1 150418Z 29007KT 24/15 A3007 RMK A01 T02400150  RH  057%=      5-min Rain = 0
KCL1 150419Z 28008KT 24/15 A3007 RMK A01 T02410146  RH  056%=      5-min Rain = 0
KCL1 150420Z 24007KT 24/15 A3006 RMK A01 T02420147  RH  055%=      5-min Rain = 0
KCL1 150421Z 23009KT 24/14 A3006 RMK A01 T02440138  RH  051%=      5-min Rain = 0
KCL1 150422Z 21010KT 25/14 A3005 RMK A01 T02500136  RH  049%=      5-min Rain = 0
KCL1 150423Z 20012KT 26/14 A3004 RMK A01 T02550135  RH  047%=      5-min Rain = 0
KCL1 150424Z 20013KT 26/14 A3003 RMK A01 T02570138  RH  048%=      5-min Rain = 0
KCL1 150425Z 21013KT 26/13 A3003 RMK A01 T02580132  RH  046%=      5-min Rain = 0
KCL1 150426Z 20013KT 26/13 A3002 RMK A01 T02620128  RH  043%=      5-min Rain = 0
KCL1 150427Z 19014KT 27/12 A3003 RMK A01 T02690124  RH  041%=      5-min Rain = 0
KCL1 150428Z 19011KT 27/13 A3003 RMK A01 T02730127  RH  040%=      5-min Rain = 0
KCL1 150429Z 19008KT 27/14 A3003 RMK A01 T02730136  RH  043%=      5-min Rain = 0
KCL1 150430Z 19008KT 27/14 A3004 RMK A01 T02680138  RH  045%=      5-min Rain = 0
KCL1 150431Z 18003KT 26/14 A3005 RMK A01 T02640139  RH  046%=      5-min Rain = 0
KCL1 150432Z 01006KT 26/14 A3007 RMK A01 T02610140  RH  047%=      5-min Rain = 0
KCL1 150433Z 03014KT 26/14 A3008 RMK A01 T02580138  RH  047%=      5-min Rain = 0
KCL1 150434Z 03014G19KT 26/14 A3008 RMK A01 T02580139  RH  048%=      5-min Rain = 0
KCL1 150435Z 03013KT 26/14 A3008 RMK A01 T02570137  RH  047%=      5-min Rain = 0
KCL1 150436Z 02012KT 26/14 A3009 RMK A01 T02570138  RH  048%=      5-min Rain = 0
KCL1 150437Z 00012KT 26/14 A3009 RMK A01 T02560139  RH  048%=      5-min Rain = 0
KCL1 150438Z 36020G25KT 25/14 A3009 RMK A01 T02540138  RH  048%=      5-min Rain = 0
KCL1 150439Z 35017G22KT 26/14 A3009 RMK A01 T02570136  RH  047%=      5-min Rain = 0
KCL1 150440Z 34021KT 26/13 A301 RMK A01 T02610132  RH  045%=      5-min Rain = 0
KCL1 150441Z 35023G34KT 26/14 A301 RMK A01 T02640135  RH  045%=      5-min Rain = 0
KCL1 150442Z 00020G27KT 26/14 A301 RMK A01 T02620138  RH  046%=      5-min Rain = 0
KCL1 150443Z 01016G22KT 26/14 A301 RMK A01 T02590139  RH  047%=      5-min Rain = 0
KCL1 150444Z 01017G22KT 26/14 A301 RMK A01 T02560141  RH  049%=      5-min Rain = 0
KCL1 150445Z 00023G29KT 25/14 A301 RMK A01 T02540139  RH  049%=      5-min Rain = 0
KCL1 150446Z 00021G28KT 26/14 A3011 RMK A01 T02560137  RH  048%=      5-min Rain = 0
KCL1 150447Z 36013G19KT 26/14 A3011 RMK A01 T02570140  RH  048%=      5-min Rain = 0
KCL1 150448Z 36009KT 26/14 A3011 RMK A01 T02550142  RH  050%=      5-min Rain = 0
KCL1 150449Z 01010KT 25/14 A3011 RMK A01 T02520144  RH  051%=      5-min Rain = 0
KCL1 150450Z 01014KT 25/15 A3011 RMK A01 T02510145  RH  052%=      5-min Rain = 0
KCL1 150451Z 01017G24KT 25/14 A3011 RMK A01 T02500144  RH  052%=      5-min Rain = 0
KCL1 150452Z 01018G24KT 25/15 A3011 RMK A01 T02510146  RH  052%=      5-min Rain = 0
KCL1 150453Z 01018G23KT 25/15 A3011 RMK A01 T02520148  RH  052%=      5-min Rain = 0
KCL1 150454Z 01019KT 25/15 A3011 RMK A01 T02520149  RH  053%=      5-min Rain = 0
KCL1 150455Z 00016KT 25/15 A3011 RMK A01 T02520150  RH  053%=      5-min Rain = 0
KCL1 150456Z 01015KT 25/15 A3011 RMK A01 T02510151  RH  054%=      5-min Rain = 0
KCL1 150457Z 01014KT 25/15 A3011 RMK A01 T02510151  RH  054%=      5-min Rain = 0
KCL1 150458Z 36013G18KT 25/15 A3011 RMK A01 T02510152  RH  054%=      5-min Rain = 0
KCL1 150459Z 36012KT 25/15 A3011 RMK A01 T02500152  RH  055%=      5-min Rain = 0

Page generated in 0.0707 seconds.